<?xml version="1.0" encoding="UTF-8" standalone="no" ?>
<gpx xmlns="http://www.topografix.com/GPX/1/1" xmlns:xsi="http://www.w3.org/2001/XMLSchema-instance" xsi:schemaLocation="http://www.topografix.com/GPX/1/1 http://www.topografix.com/GPX/1/1/gpx.xsd" version="1.1" creator="VisuGPX - https://www.visugpx.com">
  <metadata>
    <name>La pointe du Van</name>
    <desc><![CDATA[Un peu du GR 34, bouclé par un chemin de pays.
En novembre, avec du vent, çà décoiffe!]]></desc>
  </metadata>
  <trk>
    <name><![CDATA[13 nov. 2011 Cap Sizun]]></name>
    <cmt><![CDATA[13 nov. 2011 14:36:32]]></cmt>
    <trkseg>
      <trkpt lat="48.04573" lon="-4.70539">
        <ele>6.2</ele>
        <time>2011-11-13T13:36:32Z</time>
      </trkpt>
      <trkpt lat="48.04577" lon="-4.70545">
        <ele>6.2</ele>
        <time>2011-11-13T13:36:33Z</time>
      </trkpt>
      <trkpt lat="48.04579" lon="-4.70551">
        <ele>6.1</ele>
        <time>2011-11-13T13:36:38Z</time>
      </trkpt>
      <trkpt lat="48.04587" lon="-4.7056">
        <ele>5.9</ele>
        <time>2011-11-13T13:36:47Z</time>
      </trkpt>
      <trkpt lat="48.04589" lon="-4.70567">
        <ele>1</ele>
        <time>2011-11-13T13:36:52Z</time>
      </trkpt>
      <trkpt lat="48.04593" lon="-4.70574">
        <ele>1</ele>
        <time>2011-11-13T13:36:57Z</time>
      </trkpt>
      <trkpt lat="48.046" lon="-4.70582">
        <ele>6</ele>
        <time>2011-11-13T13:37:12Z</time>
      </trkpt>
      <trkpt lat="48.04606" lon="-4.70583">
        <ele>6</ele>
        <time>2011-11-13T13:37:20Z</time>
      </trkpt>
      <trkpt lat="48.04611" lon="-4.70583">
        <ele>1</ele>
        <time>2011-11-13T13:37:26Z</time>
      </trkpt>
      <trkpt lat="48.04617" lon="-4.7058">
        <ele>5.7</ele>
        <time>2011-11-13T13:37:32Z</time>
      </trkpt>
      <trkpt lat="48.04635" lon="-4.70575">
        <ele>5.1</ele>
        <time>2011-11-13T13:37:49Z</time>
      </trkpt>
      <trkpt lat="48.04639" lon="-4.70579">
        <ele>5</ele>
        <time>2011-11-13T13:37:53Z</time>
      </trkpt>
      <trkpt lat="48.04641" lon="-4.70593">
        <ele>4.7</ele>
        <time>2011-11-13T13:38:01Z</time>
      </trkpt>
      <trkpt lat="48.04645" lon="-4.70598">
        <ele>2</ele>
        <time>2011-11-13T13:38:06Z</time>
      </trkpt>
      <trkpt lat="48.04646" lon="-4.70606">
        <ele>4</ele>
        <time>2011-11-13T13:38:11Z</time>
      </trkpt>
      <trkpt lat="48.0465" lon="-4.70611">
        <ele>3.6</ele>
        <time>2011-11-13T13:38:16Z</time>
      </trkpt>
      <trkpt lat="48.04656" lon="-4.7061">
        <ele>3.5</ele>
        <time>2011-11-13T13:38:20Z</time>
      </trkpt>
      <trkpt lat="48.04662" lon="-4.70605">
        <ele>3.8</ele>
        <time>2011-11-13T13:38:31Z</time>
      </trkpt>
      <trkpt lat="48.04697" lon="-4.70594">
        <ele>4.1</ele>
        <time>2011-11-13T13:39:02Z</time>
      </trkpt>
      <trkpt lat="48.04735" lon="-4.70582">
        <ele>3.7</ele>
        <time>2011-11-13T13:39:35Z</time>
      </trkpt>
      <trkpt lat="48.04773" lon="-4.70569">
        <ele>4.2</ele>
        <time>2011-11-13T13:40:08Z</time>
      </trkpt>
      <trkpt lat="48.04802" lon="-4.70544">
        <ele>5.7</ele>
        <time>2011-11-13T13:40:40Z</time>
      </trkpt>
      <trkpt lat="48.04809" lon="-4.70534">
        <ele>7</ele>
        <time>2011-11-13T13:40:48Z</time>
      </trkpt>
      <trkpt lat="48.04811" lon="-4.70528">
        <ele>1</ele>
        <time>2011-11-13T13:40:53Z</time>
      </trkpt>
      <trkpt lat="48.04816" lon="-4.70523">
        <ele>1</ele>
        <time>2011-11-13T13:40:58Z</time>
      </trkpt>
      <trkpt lat="48.0482" lon="-4.70519">
        <ele>4</ele>
        <time>2011-11-13T13:41:02Z</time>
      </trkpt>
      <trkpt lat="48.04822" lon="-4.70513">
        <ele>1</ele>
        <time>2011-11-13T13:41:07Z</time>
      </trkpt>
      <trkpt lat="48.04821" lon="-4.70509">
        <ele>9.9</ele>
        <time>2011-11-13T13:41:24Z</time>
      </trkpt>
      <trkpt lat="48.04818" lon="-4.70504">
        <ele>1</ele>
        <time>2011-11-13T13:41:30Z</time>
      </trkpt>
      <trkpt lat="48.04813" lon="-4.70502">
        <ele>10.8</ele>
        <time>2011-11-13T13:41:34Z</time>
      </trkpt>
      <trkpt lat="48.04803" lon="-4.70499">
        <ele>10.8</ele>
        <time>2011-11-13T13:41:43Z</time>
      </trkpt>
      <trkpt lat="48.04799" lon="-4.70497">
        <ele>3</ele>
        <time>2011-11-13T13:41:48Z</time>
      </trkpt>
      <trkpt lat="48.04794" lon="-4.70496">
        <ele>2</ele>
        <time>2011-11-13T13:41:52Z</time>
      </trkpt>
      <trkpt lat="48.04789" lon="-4.70496">
        <ele>2</ele>
        <time>2011-11-13T13:41:56Z</time>
      </trkpt>
      <trkpt lat="48.04784" lon="-4.70495">
        <ele>2</ele>
        <time>2011-11-13T13:42:00Z</time>
      </trkpt>
      <trkpt lat="48.0478" lon="-4.70492">
        <ele>8.5</ele>
        <time>2011-11-13T13:42:04Z</time>
      </trkpt>
      <trkpt lat="48.0478" lon="-4.70485">
        <ele>8.8</ele>
        <time>2011-11-13T13:42:10Z</time>
      </trkpt>
      <trkpt lat="48.04769" lon="-4.70452">
        <ele>9.3</ele>
        <time>2011-11-13T13:42:28Z</time>
      </trkpt>
      <trkpt lat="48.04765" lon="-4.70447">
        <ele>9.1</ele>
        <time>2011-11-13T13:42:32Z</time>
      </trkpt>
      <trkpt lat="48.04751" lon="-4.70429">
        <ele>7.1</ele>
        <time>2011-11-13T13:42:47Z</time>
      </trkpt>
      <trkpt lat="48.04747" lon="-4.70379">
        <ele>6.9</ele>
        <time>2011-11-13T13:43:18Z</time>
      </trkpt>
      <trkpt lat="48.04751" lon="-4.70317">
        <ele>6.6</ele>
        <time>2011-11-13T13:43:55Z</time>
      </trkpt>
      <trkpt lat="48.04751" lon="-4.70257">
        <ele>7.1</ele>
        <time>2011-11-13T13:44:27Z</time>
      </trkpt>
      <trkpt lat="48.04753" lon="-4.7019">
        <ele>6.5</ele>
        <time>2011-11-13T13:45:00Z</time>
      </trkpt>
      <trkpt lat="48.04753" lon="-4.70125">
        <ele>7.6</ele>
        <time>2011-11-13T13:45:33Z</time>
      </trkpt>
      <trkpt lat="48.04754" lon="-4.70118">
        <ele>7.8</ele>
        <time>2011-11-13T13:45:36Z</time>
      </trkpt>
      <trkpt lat="48.04758" lon="-4.70114">
        <ele>1</ele>
        <time>2011-11-13T13:45:42Z</time>
      </trkpt>
      <trkpt lat="48.04764" lon="-4.70114">
        <ele>2</ele>
        <time>2011-11-13T13:45:46Z</time>
      </trkpt>
      <trkpt lat="48.04769" lon="-4.70114">
        <ele>4</ele>
        <time>2011-11-13T13:45:50Z</time>
      </trkpt>
      <trkpt lat="48.04771" lon="-4.70114">
        <ele>8</ele>
        <time>2011-11-13T13:45:56Z</time>
      </trkpt>
      <trkpt lat="48.04781" lon="-4.70112">
        <ele>8.1</ele>
        <time>2011-11-13T13:46:05Z</time>
      </trkpt>
      <trkpt lat="48.04785" lon="-4.7011">
        <ele>8.3</ele>
        <time>2011-11-13T13:46:09Z</time>
      </trkpt>
      <trkpt lat="48.0479" lon="-4.70108">
        <ele>8.6</ele>
        <time>2011-11-13T13:46:13Z</time>
      </trkpt>
      <trkpt lat="48.04804" lon="-4.70105">
        <ele>2</ele>
        <time>2011-11-13T13:46:25Z</time>
      </trkpt>
      <trkpt lat="48.0481" lon="-4.70105">
        <ele>4</ele>
        <time>2011-11-13T13:46:29Z</time>
      </trkpt>
      <trkpt lat="48.04816" lon="-4.70106">
        <ele>2</ele>
        <time>2011-11-13T13:46:33Z</time>
      </trkpt>
      <trkpt lat="48.04821" lon="-4.70109">
        <ele>5</ele>
        <time>2011-11-13T13:46:37Z</time>
      </trkpt>
      <trkpt lat="48.04823" lon="-4.70116">
        <ele>6</ele>
        <time>2011-11-13T13:46:42Z</time>
      </trkpt>
      <trkpt lat="48.04824" lon="-4.70124">
        <ele>10.5</ele>
        <time>2011-11-13T13:46:46Z</time>
      </trkpt>
      <trkpt lat="48.04826" lon="-4.70138">
        <ele>11.4</ele>
        <time>2011-11-13T13:46:52Z</time>
      </trkpt>
      <trkpt lat="48.04826" lon="-4.70145">
        <ele>2</ele>
        <time>2011-11-13T13:46:57Z</time>
      </trkpt>
      <trkpt lat="48.04826" lon="-4.70151">
        <ele>2</ele>
        <time>2011-11-13T13:47:02Z</time>
      </trkpt>
      <trkpt lat="48.04824" lon="-4.70158">
        <ele>15.6</ele>
        <time>2011-11-13T13:47:06Z</time>
      </trkpt>
      <trkpt lat="48.04821" lon="-4.70163">
        <ele>3</ele>
        <time>2011-11-13T13:47:10Z</time>
      </trkpt>
      <trkpt lat="48.04818" lon="-4.70168">
        <ele>2</ele>
        <time>2011-11-13T13:47:14Z</time>
      </trkpt>
      <trkpt lat="48.04814" lon="-4.70174">
        <ele>6</ele>
        <time>2011-11-13T13:47:19Z</time>
      </trkpt>
      <trkpt lat="48.04812" lon="-4.70181">
        <ele>5</ele>
        <time>2011-11-13T13:47:23Z</time>
      </trkpt>
      <trkpt lat="48.04811" lon="-4.70187">
        <ele>6</ele>
        <time>2011-11-13T13:47:27Z</time>
      </trkpt>
      <trkpt lat="48.0481" lon="-4.70193">
        <ele>7</ele>
        <time>2011-11-13T13:47:31Z</time>
      </trkpt>
      <trkpt lat="48.04809" lon="-4.70202">
        <ele>5</ele>
        <time>2011-11-13T13:47:36Z</time>
      </trkpt>
      <trkpt lat="48.04808" lon="-4.7021">
        <ele>8</ele>
        <time>2011-11-13T13:47:41Z</time>
      </trkpt>
      <trkpt lat="48.04808" lon="-4.70217">
        <ele>5</ele>
        <time>2011-11-13T13:47:44Z</time>
      </trkpt>
      <trkpt lat="48.04808" lon="-4.70232">
        <ele>15</ele>
        <time>2011-11-13T13:47:52Z</time>
      </trkpt>
      <trkpt lat="48.0481" lon="-4.70239">
        <ele>13</ele>
        <time>2011-11-13T13:47:56Z</time>
      </trkpt>
      <trkpt lat="48.04814" lon="-4.70243">
        <ele>15</ele>
        <time>2011-11-13T13:48:00Z</time>
      </trkpt>
      <trkpt lat="48.04819" lon="-4.70243">
        <ele>15</ele>
        <time>2011-11-13T13:48:06Z</time>
      </trkpt>
      <trkpt lat="48.04824" lon="-4.7024">
        <ele>17</ele>
        <time>2011-11-13T13:48:12Z</time>
      </trkpt>
      <trkpt lat="48.04829" lon="-4.70238">
        <ele>15</ele>
        <time>2011-11-13T13:48:16Z</time>
      </trkpt>
      <trkpt lat="48.04839" lon="-4.70234">
        <ele>19</ele>
        <time>2011-11-13T13:48:25Z</time>
      </trkpt>
      <trkpt lat="48.04845" lon="-4.70232">
        <ele>17</ele>
        <time>2011-11-13T13:48:30Z</time>
      </trkpt>
      <trkpt lat="48.0486" lon="-4.70225">
        <ele>21</ele>
        <time>2011-11-13T13:48:42Z</time>
      </trkpt>
      <trkpt lat="48.04865" lon="-4.70223">
        <ele>20</ele>
        <time>2011-11-13T13:48:46Z</time>
      </trkpt>
      <trkpt lat="48.0487" lon="-4.70222">
        <ele>23</ele>
        <time>2011-11-13T13:48:50Z</time>
      </trkpt>
      <trkpt lat="48.04885" lon="-4.70214">
        <ele>26</ele>
        <time>2011-11-13T13:49:05Z</time>
      </trkpt>
      <trkpt lat="48.0489" lon="-4.70213">
        <ele>22</ele>
        <time>2011-11-13T13:49:10Z</time>
      </trkpt>
      <trkpt lat="48.049" lon="-4.70209">
        <ele>28</ele>
        <time>2011-11-13T13:49:20Z</time>
      </trkpt>
      <trkpt lat="48.04905" lon="-4.70207">
        <ele>27</ele>
        <time>2011-11-13T13:49:25Z</time>
      </trkpt>
      <trkpt lat="48.0491" lon="-4.70205">
        <ele>26</ele>
        <time>2011-11-13T13:49:30Z</time>
      </trkpt>
      <trkpt lat="48.04914" lon="-4.70204">
        <ele>30</ele>
        <time>2011-11-13T13:49:34Z</time>
      </trkpt>
      <trkpt lat="48.04924" lon="-4.70203">
        <ele>25</ele>
        <time>2011-11-13T13:49:44Z</time>
      </trkpt>
      <trkpt lat="48.04935" lon="-4.70201">
        <ele>30</ele>
        <time>2011-11-13T13:49:53Z</time>
      </trkpt>
      <trkpt lat="48.0494" lon="-4.70201">
        <ele>27</ele>
        <time>2011-11-13T13:49:59Z</time>
      </trkpt>
      <trkpt lat="48.04956" lon="-4.70199">
        <ele>33</ele>
        <time>2011-11-13T13:50:12Z</time>
      </trkpt>
      <trkpt lat="48.04961" lon="-4.70199">
        <ele>30</ele>
        <time>2011-11-13T13:50:17Z</time>
      </trkpt>
      <trkpt lat="48.04966" lon="-4.70197">
        <ele>33</ele>
        <time>2011-11-13T13:50:21Z</time>
      </trkpt>
      <trkpt lat="48.04971" lon="-4.70195">
        <ele>32</ele>
        <time>2011-11-13T13:50:26Z</time>
      </trkpt>
      <trkpt lat="48.04983" lon="-4.70189">
        <ele>38</ele>
        <time>2011-11-13T13:50:51Z</time>
      </trkpt>
      <trkpt lat="48.04988" lon="-4.70187">
        <ele>35</ele>
        <time>2011-11-13T13:50:58Z</time>
      </trkpt>
      <trkpt lat="48.04993" lon="-4.70187">
        <ele>36</ele>
        <time>2011-11-13T13:51:06Z</time>
      </trkpt>
      <trkpt lat="48.04998" lon="-4.70189">
        <ele>38</ele>
        <time>2011-11-13T13:51:12Z</time>
      </trkpt>
      <trkpt lat="48.05013" lon="-4.70191">
        <ele>35</ele>
        <time>2011-11-13T13:51:31Z</time>
      </trkpt>
      <trkpt lat="48.05017" lon="-4.70193">
        <ele>36</ele>
        <time>2011-11-13T13:51:36Z</time>
      </trkpt>
      <trkpt lat="48.05022" lon="-4.70195">
        <ele>36</ele>
        <time>2011-11-13T13:51:42Z</time>
      </trkpt>
      <trkpt lat="48.05027" lon="-4.70194">
        <ele>39</ele>
        <time>2011-11-13T13:51:48Z</time>
      </trkpt>
      <trkpt lat="48.05032" lon="-4.70191">
        <ele>38</ele>
        <time>2011-11-13T13:51:52Z</time>
      </trkpt>
      <trkpt lat="48.05037" lon="-4.70189">
        <ele>38</ele>
        <time>2011-11-13T13:51:56Z</time>
      </trkpt>
      <trkpt lat="48.05042" lon="-4.70188">
        <ele>37</ele>
        <time>2011-11-13T13:52:00Z</time>
      </trkpt>
      <trkpt lat="48.05046" lon="-4.70185">
        <ele>37</ele>
        <time>2011-11-13T13:52:03Z</time>
      </trkpt>
      <trkpt lat="48.05055" lon="-4.70181">
        <ele>42</ele>
        <time>2011-11-13T13:52:12Z</time>
      </trkpt>
      <trkpt lat="48.0506" lon="-4.70178">
        <ele>40</ele>
        <time>2011-11-13T13:52:17Z</time>
      </trkpt>
      <trkpt lat="48.05065" lon="-4.70176">
        <ele>42</ele>
        <time>2011-11-13T13:52:21Z</time>
      </trkpt>
      <trkpt lat="48.0507" lon="-4.70174">
        <ele>41</ele>
        <time>2011-11-13T13:52:25Z</time>
      </trkpt>
      <trkpt lat="48.05075" lon="-4.70173">
        <ele>42</ele>
        <time>2011-11-13T13:52:29Z</time>
      </trkpt>
      <trkpt lat="48.0508" lon="-4.70172">
        <ele>41</ele>
        <time>2011-11-13T13:52:33Z</time>
      </trkpt>
      <trkpt lat="48.0509" lon="-4.70174">
        <ele>45</ele>
        <time>2011-11-13T13:52:41Z</time>
      </trkpt>
      <trkpt lat="48.05095" lon="-4.70178">
        <ele>41</ele>
        <time>2011-11-13T13:52:47Z</time>
      </trkpt>
      <trkpt lat="48.05116" lon="-4.70197">
        <ele>47</ele>
        <time>2011-11-13T13:53:09Z</time>
      </trkpt>
      <trkpt lat="48.0512" lon="-4.70199">
        <ele>45</ele>
        <time>2011-11-13T13:53:13Z</time>
      </trkpt>
      <trkpt lat="48.05125" lon="-4.70202">
        <ele>47</ele>
        <time>2011-11-13T13:53:17Z</time>
      </trkpt>
      <trkpt lat="48.0513" lon="-4.70201">
        <ele>46</ele>
        <time>2011-11-13T13:53:21Z</time>
      </trkpt>
      <trkpt lat="48.05135" lon="-4.70201">
        <ele>45</ele>
        <time>2011-11-13T13:53:25Z</time>
      </trkpt>
      <trkpt lat="48.0514" lon="-4.70203">
        <ele>46</ele>
        <time>2011-11-13T13:53:30Z</time>
      </trkpt>
      <trkpt lat="48.0515" lon="-4.70207">
        <ele>38</ele>
        <time>2011-11-13T13:53:38Z</time>
      </trkpt>
      <trkpt lat="48.05164" lon="-4.70204">
        <ele>34</ele>
        <time>2011-11-13T13:53:53Z</time>
      </trkpt>
      <trkpt lat="48.05179" lon="-4.702">
        <ele>40</ele>
        <time>2011-11-13T13:54:03Z</time>
      </trkpt>
      <trkpt lat="48.05186" lon="-4.70191">
        <ele>43</ele>
        <time>2011-11-13T13:54:11Z</time>
      </trkpt>
      <trkpt lat="48.05191" lon="-4.70188">
        <ele>43</ele>
        <time>2011-11-13T13:54:15Z</time>
      </trkpt>
      <trkpt lat="48.05194" lon="-4.70186">
        <ele>45</ele>
        <time>2011-11-13T13:54:22Z</time>
      </trkpt>
      <trkpt lat="48.05196" lon="-4.70179">
        <ele>36</ele>
        <time>2011-11-13T13:54:27Z</time>
      </trkpt>
      <trkpt lat="48.05199" lon="-4.70164">
        <ele>38</ele>
        <time>2011-11-13T13:54:35Z</time>
      </trkpt>
      <trkpt lat="48.05201" lon="-4.70156">
        <ele>35</ele>
        <time>2011-11-13T13:54:39Z</time>
      </trkpt>
      <trkpt lat="48.05205" lon="-4.70133">
        <ele>44</ele>
        <time>2011-11-13T13:54:49Z</time>
      </trkpt>
      <trkpt lat="48.05206" lon="-4.70125">
        <ele>41</ele>
        <time>2011-11-13T13:54:54Z</time>
      </trkpt>
      <trkpt lat="48.05205" lon="-4.70119">
        <ele>41</ele>
        <time>2011-11-13T13:54:57Z</time>
      </trkpt>
      <trkpt lat="48.05205" lon="-4.70112">
        <ele>44</ele>
        <time>2011-11-13T13:55:01Z</time>
      </trkpt>
      <trkpt lat="48.05206" lon="-4.70104">
        <ele>42</ele>
        <time>2011-11-13T13:55:05Z</time>
      </trkpt>
      <trkpt lat="48.05208" lon="-4.70096">
        <ele>47</ele>
        <time>2011-11-13T13:55:09Z</time>
      </trkpt>
      <trkpt lat="48.05211" lon="-4.7009">
        <ele>45</ele>
        <time>2011-11-13T13:55:14Z</time>
      </trkpt>
      <trkpt lat="48.05213" lon="-4.70083">
        <ele>49</ele>
        <time>2011-11-13T13:55:18Z</time>
      </trkpt>
      <trkpt lat="48.05215" lon="-4.70077">
        <ele>48</ele>
        <time>2011-11-13T13:55:22Z</time>
      </trkpt>
      <trkpt lat="48.05216" lon="-4.7007">
        <ele>51</ele>
        <time>2011-11-13T13:55:26Z</time>
      </trkpt>
      <trkpt lat="48.05218" lon="-4.70062">
        <ele>45</ele>
        <time>2011-11-13T13:55:31Z</time>
      </trkpt>
      <trkpt lat="48.05222" lon="-4.70048">
        <ele>49</ele>
        <time>2011-11-13T13:55:39Z</time>
      </trkpt>
      <trkpt lat="48.05225" lon="-4.70042">
        <ele>49</ele>
        <time>2011-11-13T13:55:43Z</time>
      </trkpt>
      <trkpt lat="48.05228" lon="-4.70026">
        <ele>46</ele>
        <time>2011-11-13T13:55:52Z</time>
      </trkpt>
      <trkpt lat="48.0523" lon="-4.70019">
        <ele>49</ele>
        <time>2011-11-13T13:55:56Z</time>
      </trkpt>
      <trkpt lat="48.05232" lon="-4.70012">
        <ele>48</ele>
        <time>2011-11-13T13:56:00Z</time>
      </trkpt>
      <trkpt lat="48.05233" lon="-4.70005">
        <ele>50</ele>
        <time>2011-11-13T13:56:04Z</time>
      </trkpt>
      <trkpt lat="48.05234" lon="-4.69998">
        <ele>44</ele>
        <time>2011-11-13T13:56:08Z</time>
      </trkpt>
      <trkpt lat="48.05236" lon="-4.69989">
        <ele>49</ele>
        <time>2011-11-13T13:56:12Z</time>
      </trkpt>
      <trkpt lat="48.05237" lon="-4.69983">
        <ele>48</ele>
        <time>2011-11-13T13:56:15Z</time>
      </trkpt>
      <trkpt lat="48.05237" lon="-4.69969">
        <ele>53</ele>
        <time>2011-11-13T13:56:23Z</time>
      </trkpt>
      <trkpt lat="48.05237" lon="-4.69953">
        <ele>47</ele>
        <time>2011-11-13T13:56:31Z</time>
      </trkpt>
      <trkpt lat="48.05237" lon="-4.69938">
        <ele>46</ele>
        <time>2011-11-13T13:56:39Z</time>
      </trkpt>
      <trkpt lat="48.05236" lon="-4.69922">
        <ele>42</ele>
        <time>2011-11-13T13:56:47Z</time>
      </trkpt>
      <trkpt lat="48.05236" lon="-4.69914">
        <ele>45</ele>
        <time>2011-11-13T13:56:50Z</time>
      </trkpt>
      <trkpt lat="48.05236" lon="-4.69908">
        <ele>45</ele>
        <time>2011-11-13T13:56:54Z</time>
      </trkpt>
      <trkpt lat="48.05236" lon="-4.699">
        <ele>47</ele>
        <time>2011-11-13T13:56:58Z</time>
      </trkpt>
      <trkpt lat="48.05237" lon="-4.69891">
        <ele>45</ele>
        <time>2011-11-13T13:57:02Z</time>
      </trkpt>
      <trkpt lat="48.05237" lon="-4.69883">
        <ele>46</ele>
        <time>2011-11-13T13:57:06Z</time>
      </trkpt>
      <trkpt lat="48.05239" lon="-4.69866">
        <ele>53</ele>
        <time>2011-11-13T13:57:14Z</time>
      </trkpt>
      <trkpt lat="48.0524" lon="-4.69859">
        <ele>51</ele>
        <time>2011-11-13T13:57:17Z</time>
      </trkpt>
      <trkpt lat="48.05242" lon="-4.69853">
        <ele>51</ele>
        <time>2011-11-13T13:57:21Z</time>
      </trkpt>
      <trkpt lat="48.05244" lon="-4.69846">
        <ele>55</ele>
        <time>2011-11-13T13:57:25Z</time>
      </trkpt>
      <trkpt lat="48.05246" lon="-4.69839">
        <ele>55</ele>
        <time>2011-11-13T13:57:29Z</time>
      </trkpt>
      <trkpt lat="48.05253" lon="-4.69825">
        <ele>51</ele>
        <time>2011-11-13T13:57:39Z</time>
      </trkpt>
      <trkpt lat="48.05256" lon="-4.69819">
        <ele>52</ele>
        <time>2011-11-13T13:57:42Z</time>
      </trkpt>
      <trkpt lat="48.05257" lon="-4.69812">
        <ele>44</ele>
        <time>2011-11-13T13:57:46Z</time>
      </trkpt>
      <trkpt lat="48.05259" lon="-4.69805">
        <ele>45</ele>
        <time>2011-11-13T13:57:49Z</time>
      </trkpt>
      <trkpt lat="48.0526" lon="-4.69799">
        <ele>46</ele>
        <time>2011-11-13T13:57:52Z</time>
      </trkpt>
      <trkpt lat="48.0526" lon="-4.69791">
        <ele>49</ele>
        <time>2011-11-13T13:57:56Z</time>
      </trkpt>
      <trkpt lat="48.05259" lon="-4.69783">
        <ele>44</ele>
        <time>2011-11-13T13:58:00Z</time>
      </trkpt>
      <trkpt lat="48.05255" lon="-4.69769">
        <ele>47</ele>
        <time>2011-11-13T13:58:08Z</time>
      </trkpt>
      <trkpt lat="48.05255" lon="-4.69761">
        <ele>44</ele>
        <time>2011-11-13T13:58:12Z</time>
      </trkpt>
      <trkpt lat="48.05259" lon="-4.69748">
        <ele>47</ele>
        <time>2011-11-13T13:58:20Z</time>
      </trkpt>
      <trkpt lat="48.05265" lon="-4.69737">
        <ele>44</ele>
        <time>2011-11-13T13:58:27Z</time>
      </trkpt>
      <trkpt lat="48.05269" lon="-4.69731">
        <ele>44</ele>
        <time>2011-11-13T13:58:32Z</time>
      </trkpt>
      <trkpt lat="48.05271" lon="-4.69723">
        <ele>48</ele>
        <time>2011-11-13T13:58:37Z</time>
      </trkpt>
      <trkpt lat="48.05276" lon="-4.69678">
        <ele>28</ele>
        <time>2011-11-13T13:59:08Z</time>
      </trkpt>
      <trkpt lat="48.05285" lon="-4.69653">
        <ele>14</ele>
        <time>2011-11-13T13:59:24Z</time>
      </trkpt>
      <trkpt lat="48.05285" lon="-4.69625">
        <ele>25</ele>
        <time>2011-11-13T13:59:40Z</time>
      </trkpt>
      <trkpt lat="48.05284" lon="-4.69619">
        <ele>24</ele>
        <time>2011-11-13T13:59:49Z</time>
      </trkpt>
      <trkpt lat="48.0528" lon="-4.69616">
        <ele>24</ele>
        <time>2011-11-13T13:59:54Z</time>
      </trkpt>
      <trkpt lat="48.05257" lon="-4.6961">
        <ele>34</ele>
        <time>2011-11-13T14:00:09Z</time>
      </trkpt>
      <trkpt lat="48.05251" lon="-4.69608">
        <ele>34</ele>
        <time>2011-11-13T14:00:12Z</time>
      </trkpt>
      <trkpt lat="48.05245" lon="-4.69603">
        <ele>39</ele>
        <time>2011-11-13T14:00:18Z</time>
      </trkpt>
      <trkpt lat="48.05229" lon="-4.69589">
        <ele>20</ele>
        <time>2011-11-13T14:00:36Z</time>
      </trkpt>
      <trkpt lat="48.05207" lon="-4.69559">
        <ele>36</ele>
        <time>2011-11-13T14:00:58Z</time>
      </trkpt>
      <trkpt lat="48.05201" lon="-4.6955">
        <ele>36</ele>
        <time>2011-11-13T14:01:03Z</time>
      </trkpt>
      <trkpt lat="48.05197" lon="-4.69546">
        <ele>32</ele>
        <time>2011-11-13T14:01:06Z</time>
      </trkpt>
      <trkpt lat="48.05193" lon="-4.69542">
        <ele>33</ele>
        <time>2011-11-13T14:01:10Z</time>
      </trkpt>
      <trkpt lat="48.05188" lon="-4.6954">
        <ele>33</ele>
        <time>2011-11-13T14:01:14Z</time>
      </trkpt>
      <trkpt lat="48.05178" lon="-4.69535">
        <ele>35</ele>
        <time>2011-11-13T14:01:23Z</time>
      </trkpt>
      <trkpt lat="48.05174" lon="-4.69533">
        <ele>34</ele>
        <time>2011-11-13T14:01:28Z</time>
      </trkpt>
      <trkpt lat="48.05169" lon="-4.69531">
        <ele>32</ele>
        <time>2011-11-13T14:01:32Z</time>
      </trkpt>
      <trkpt lat="48.05164" lon="-4.6953">
        <ele>31</ele>
        <time>2011-11-13T14:01:37Z</time>
      </trkpt>
      <trkpt lat="48.0516" lon="-4.69528">
        <ele>38</ele>
        <time>2011-11-13T14:01:41Z</time>
      </trkpt>
      <trkpt lat="48.05155" lon="-4.69526">
        <ele>38</ele>
        <time>2011-11-13T14:01:45Z</time>
      </trkpt>
      <trkpt lat="48.05151" lon="-4.69524">
        <ele>39</ele>
        <time>2011-11-13T14:01:49Z</time>
      </trkpt>
      <trkpt lat="48.05146" lon="-4.69521">
        <ele>35</ele>
        <time>2011-11-13T14:01:53Z</time>
      </trkpt>
      <trkpt lat="48.05141" lon="-4.69519">
        <ele>34</ele>
        <time>2011-11-13T14:01:57Z</time>
      </trkpt>
      <trkpt lat="48.05129" lon="-4.6951">
        <ele>39</ele>
        <time>2011-11-13T14:02:19Z</time>
      </trkpt>
      <trkpt lat="48.05121" lon="-4.69506">
        <ele>32</ele>
        <time>2011-11-13T14:02:40Z</time>
      </trkpt>
      <trkpt lat="48.05116" lon="-4.69501">
        <ele>36</ele>
        <time>2011-11-13T14:02:45Z</time>
      </trkpt>
      <trkpt lat="48.05108" lon="-4.69491">
        <ele>33</ele>
        <time>2011-11-13T14:02:51Z</time>
      </trkpt>
      <trkpt lat="48.05104" lon="-4.69487">
        <ele>35</ele>
        <time>2011-11-13T14:02:54Z</time>
      </trkpt>
      <trkpt lat="48.05098" lon="-4.69477">
        <ele>29</ele>
        <time>2011-11-13T14:03:01Z</time>
      </trkpt>
      <trkpt lat="48.05094" lon="-4.69471">
        <ele>30</ele>
        <time>2011-11-13T14:03:05Z</time>
      </trkpt>
      <trkpt lat="48.0509" lon="-4.69466">
        <ele>32</ele>
        <time>2011-11-13T14:03:09Z</time>
      </trkpt>
      <trkpt lat="48.05086" lon="-4.69462">
        <ele>31</ele>
        <time>2011-11-13T14:03:13Z</time>
      </trkpt>
      <trkpt lat="48.05077" lon="-4.69452">
        <ele>27</ele>
        <time>2011-11-13T14:03:22Z</time>
      </trkpt>
      <trkpt lat="48.05073" lon="-4.69448">
        <ele>27</ele>
        <time>2011-11-13T14:03:25Z</time>
      </trkpt>
      <trkpt lat="48.05069" lon="-4.69444">
        <ele>30</ele>
        <time>2011-11-13T14:03:28Z</time>
      </trkpt>
      <trkpt lat="48.0506" lon="-4.69436">
        <ele>28</ele>
        <time>2011-11-13T14:03:35Z</time>
      </trkpt>
      <trkpt lat="48.05055" lon="-4.69433">
        <ele>30</ele>
        <time>2011-11-13T14:03:39Z</time>
      </trkpt>
      <trkpt lat="48.05046" lon="-4.69427">
        <ele>30</ele>
        <time>2011-11-13T14:03:47Z</time>
      </trkpt>
      <trkpt lat="48.05041" lon="-4.69425">
        <ele>29</ele>
        <time>2011-11-13T14:03:51Z</time>
      </trkpt>
      <trkpt lat="48.05037" lon="-4.69422">
        <ele>29</ele>
        <time>2011-11-13T14:03:54Z</time>
      </trkpt>
      <trkpt lat="48.05033" lon="-4.69419">
        <ele>29</ele>
        <time>2011-11-13T14:03:58Z</time>
      </trkpt>
      <trkpt lat="48.05024" lon="-4.69414">
        <ele>32</ele>
        <time>2011-11-13T14:04:06Z</time>
      </trkpt>
      <trkpt lat="48.05019" lon="-4.69409">
        <ele>28</ele>
        <time>2011-11-13T14:04:10Z</time>
      </trkpt>
      <trkpt lat="48.05015" lon="-4.69404">
        <ele>30</ele>
        <time>2011-11-13T14:04:13Z</time>
      </trkpt>
      <trkpt lat="48.05013" lon="-4.69397">
        <ele>30</ele>
        <time>2011-11-13T14:04:17Z</time>
      </trkpt>
      <trkpt lat="48.05013" lon="-4.69388">
        <ele>31</ele>
        <time>2011-11-13T14:04:22Z</time>
      </trkpt>
      <trkpt lat="48.05014" lon="-4.69381">
        <ele>30</ele>
        <time>2011-11-13T14:04:26Z</time>
      </trkpt>
      <trkpt lat="48.05015" lon="-4.69374">
        <ele>31</ele>
        <time>2011-11-13T14:04:29Z</time>
      </trkpt>
      <trkpt lat="48.05013" lon="-4.69367">
        <ele>31</ele>
        <time>2011-11-13T14:04:33Z</time>
      </trkpt>
      <trkpt lat="48.05009" lon="-4.69364">
        <ele>33</ele>
        <time>2011-11-13T14:04:37Z</time>
      </trkpt>
      <trkpt lat="48.05004" lon="-4.69362">
        <ele>31</ele>
        <time>2011-11-13T14:04:40Z</time>
      </trkpt>
      <trkpt lat="48.04994" lon="-4.6936">
        <ele>31</ele>
        <time>2011-11-13T14:04:48Z</time>
      </trkpt>
      <trkpt lat="48.04989" lon="-4.69359">
        <ele>32</ele>
        <time>2011-11-13T14:04:52Z</time>
      </trkpt>
      <trkpt lat="48.04983" lon="-4.69358">
        <ele>29</ele>
        <time>2011-11-13T14:04:56Z</time>
      </trkpt>
      <trkpt lat="48.04978" lon="-4.69357">
        <ele>29</ele>
        <time>2011-11-13T14:05:00Z</time>
      </trkpt>
      <trkpt lat="48.04972" lon="-4.69356">
        <ele>28</ele>
        <time>2011-11-13T14:05:04Z</time>
      </trkpt>
      <trkpt lat="48.04968" lon="-4.69355">
        <ele>29</ele>
        <time>2011-11-13T14:05:08Z</time>
      </trkpt>
      <trkpt lat="48.04962" lon="-4.69353">
        <ele>29</ele>
        <time>2011-11-13T14:05:12Z</time>
      </trkpt>
      <trkpt lat="48.04952" lon="-4.69348">
        <ele>29</ele>
        <time>2011-11-13T14:05:20Z</time>
      </trkpt>
      <trkpt lat="48.04946" lon="-4.69346">
        <ele>28</ele>
        <time>2011-11-13T14:05:24Z</time>
      </trkpt>
      <trkpt lat="48.04942" lon="-4.69344">
        <ele>29</ele>
        <time>2011-11-13T14:05:27Z</time>
      </trkpt>
      <trkpt lat="48.04937" lon="-4.69342">
        <ele>29</ele>
        <time>2011-11-13T14:05:31Z</time>
      </trkpt>
      <trkpt lat="48.04932" lon="-4.6934">
        <ele>27</ele>
        <time>2011-11-13T14:05:35Z</time>
      </trkpt>
      <trkpt lat="48.04927" lon="-4.69338">
        <ele>28</ele>
        <time>2011-11-13T14:05:39Z</time>
      </trkpt>
      <trkpt lat="48.04922" lon="-4.69336">
        <ele>26</ele>
        <time>2011-11-13T14:05:43Z</time>
      </trkpt>
      <trkpt lat="48.04917" lon="-4.69334">
        <ele>28</ele>
        <time>2011-11-13T14:05:47Z</time>
      </trkpt>
      <trkpt lat="48.04912" lon="-4.69332">
        <ele>28</ele>
        <time>2011-11-13T14:05:51Z</time>
      </trkpt>
      <trkpt lat="48.04901" lon="-4.69326">
        <ele>29</ele>
        <time>2011-11-13T14:05:59Z</time>
      </trkpt>
      <trkpt lat="48.04892" lon="-4.69323">
        <ele>26</ele>
        <time>2011-11-13T14:06:07Z</time>
      </trkpt>
      <trkpt lat="48.04888" lon="-4.69318">
        <ele>24</ele>
        <time>2011-11-13T14:06:11Z</time>
      </trkpt>
      <trkpt lat="48.04887" lon="-4.69311">
        <ele>27</ele>
        <time>2011-11-13T14:06:15Z</time>
      </trkpt>
      <trkpt lat="48.04887" lon="-4.69295">
        <ele>30</ele>
        <time>2011-11-13T14:06:23Z</time>
      </trkpt>
      <trkpt lat="48.04887" lon="-4.69289">
        <ele>26</ele>
        <time>2011-11-13T14:06:27Z</time>
      </trkpt>
      <trkpt lat="48.04887" lon="-4.69281">
        <ele>29</ele>
        <time>2011-11-13T14:06:31Z</time>
      </trkpt>
      <trkpt lat="48.04887" lon="-4.69273">
        <ele>25</ele>
        <time>2011-11-13T14:06:34Z</time>
      </trkpt>
      <trkpt lat="48.04887" lon="-4.69267">
        <ele>28</ele>
        <time>2011-11-13T14:06:38Z</time>
      </trkpt>
      <trkpt lat="48.04886" lon="-4.69259">
        <ele>27</ele>
        <time>2011-11-13T14:06:42Z</time>
      </trkpt>
      <trkpt lat="48.04886" lon="-4.69253">
        <ele>30</ele>
        <time>2011-11-13T14:06:46Z</time>
      </trkpt>
      <trkpt lat="48.04885" lon="-4.69245">
        <ele>27</ele>
        <time>2011-11-13T14:06:50Z</time>
      </trkpt>
      <trkpt lat="48.04886" lon="-4.69238">
        <ele>28</ele>
        <time>2011-11-13T14:06:53Z</time>
      </trkpt>
      <trkpt lat="48.04886" lon="-4.69231">
        <ele>26</ele>
        <time>2011-11-13T14:06:57Z</time>
      </trkpt>
      <trkpt lat="48.04886" lon="-4.69222">
        <ele>27</ele>
        <time>2011-11-13T14:07:01Z</time>
      </trkpt>
      <trkpt lat="48.04887" lon="-4.69214">
        <ele>26</ele>
        <time>2011-11-13T14:07:06Z</time>
      </trkpt>
      <trkpt lat="48.04887" lon="-4.69207">
        <ele>30</ele>
        <time>2011-11-13T14:07:10Z</time>
      </trkpt>
      <trkpt lat="48.04887" lon="-4.69199">
        <ele>27</ele>
        <time>2011-11-13T14:07:14Z</time>
      </trkpt>
      <trkpt lat="48.04888" lon="-4.69193">
        <ele>28</ele>
        <time>2011-11-13T14:07:17Z</time>
      </trkpt>
      <trkpt lat="48.04888" lon="-4.69185">
        <ele>29</ele>
        <time>2011-11-13T14:07:20Z</time>
      </trkpt>
      <trkpt lat="48.04888" lon="-4.69178">
        <ele>29</ele>
        <time>2011-11-13T14:07:24Z</time>
      </trkpt>
      <trkpt lat="48.04889" lon="-4.69172">
        <ele>29</ele>
        <time>2011-11-13T14:07:27Z</time>
      </trkpt>
      <trkpt lat="48.04889" lon="-4.69165">
        <ele>26</ele>
        <time>2011-11-13T14:07:31Z</time>
      </trkpt>
      <trkpt lat="48.04887" lon="-4.69159">
        <ele>24</ele>
        <time>2011-11-13T14:07:36Z</time>
      </trkpt>
      <trkpt lat="48.04882" lon="-4.69162">
        <ele>25</ele>
        <time>2011-11-13T14:07:40Z</time>
      </trkpt>
      <trkpt lat="48.04877" lon="-4.69166">
        <ele>26</ele>
        <time>2011-11-13T14:07:45Z</time>
      </trkpt>
      <trkpt lat="48.04868" lon="-4.69169">
        <ele>22</ele>
        <time>2011-11-13T14:07:54Z</time>
      </trkpt>
      <trkpt lat="48.04863" lon="-4.69168">
        <ele>22</ele>
        <time>2011-11-13T14:07:58Z</time>
      </trkpt>
      <trkpt lat="48.04861" lon="-4.69161">
        <ele>17</ele>
        <time>2011-11-13T14:08:03Z</time>
      </trkpt>
      <trkpt lat="48.04861" lon="-4.69153">
        <ele>17</ele>
        <time>2011-11-13T14:08:07Z</time>
      </trkpt>
      <trkpt lat="48.04862" lon="-4.69145">
        <ele>16</ele>
        <time>2011-11-13T14:08:13Z</time>
      </trkpt>
      <trkpt lat="48.04861" lon="-4.69138">
        <ele>17</ele>
        <time>2011-11-13T14:08:16Z</time>
      </trkpt>
      <trkpt lat="48.04861" lon="-4.69132">
        <ele>9</ele>
        <time>2011-11-13T14:08:21Z</time>
      </trkpt>
      <trkpt lat="48.04861" lon="-4.69124">
        <ele>15</ele>
        <time>2011-11-13T14:08:25Z</time>
      </trkpt>
      <trkpt lat="48.0486" lon="-4.69108">
        <ele>10</ele>
        <time>2011-11-13T14:08:35Z</time>
      </trkpt>
      <trkpt lat="48.04856" lon="-4.69078">
        <ele>23</ele>
        <time>2011-11-13T14:08:48Z</time>
      </trkpt>
      <trkpt lat="48.04854" lon="-4.6907">
        <ele>18</ele>
        <time>2011-11-13T14:08:53Z</time>
      </trkpt>
      <trkpt lat="48.04852" lon="-4.69063">
        <ele>19</ele>
        <time>2011-11-13T14:08:56Z</time>
      </trkpt>
      <trkpt lat="48.04848" lon="-4.69051">
        <ele>12</ele>
        <time>2011-11-13T14:09:05Z</time>
      </trkpt>
      <trkpt lat="48.04846" lon="-4.69044">
        <ele>16</ele>
        <time>2011-11-13T14:09:10Z</time>
      </trkpt>
      <trkpt lat="48.04842" lon="-4.69035">
        <ele>1</ele>
        <time>2011-11-13T14:09:17Z</time>
      </trkpt>
      <trkpt lat="48.04839" lon="-4.6903">
        <ele>4</ele>
        <time>2011-11-13T14:09:22Z</time>
      </trkpt>
      <trkpt lat="48.0484" lon="-4.69016">
        <ele>2</ele>
        <time>2011-11-13T14:09:36Z</time>
      </trkpt>
      <trkpt lat="48.04843" lon="-4.6901">
        <ele>10</ele>
        <time>2011-11-13T14:09:46Z</time>
      </trkpt>
      <trkpt lat="48.04847" lon="-4.68997">
        <ele>3</ele>
        <time>2011-11-13T14:09:57Z</time>
      </trkpt>
      <trkpt lat="48.04847" lon="-4.68989">
        <ele>4</ele>
        <time>2011-11-13T14:10:01Z</time>
      </trkpt>
      <trkpt lat="48.04848" lon="-4.68982">
        <ele>2</ele>
        <time>2011-11-13T14:10:07Z</time>
      </trkpt>
      <trkpt lat="48.04852" lon="-4.68971">
        <ele>12</ele>
        <time>2011-11-13T14:10:17Z</time>
      </trkpt>
      <trkpt lat="48.04855" lon="-4.68974">
        <ele>15</ele>
        <time>2011-11-13T14:10:54Z</time>
      </trkpt>
      <trkpt lat="48.04852" lon="-4.68981">
        <ele>17</ele>
        <time>2011-11-13T14:10:59Z</time>
      </trkpt>
      <trkpt lat="48.0486" lon="-4.68984">
        <ele>16</ele>
        <time>2011-11-13T14:11:07Z</time>
      </trkpt>
      <trkpt lat="48.04866" lon="-4.68984">
        <ele>21</ele>
        <time>2011-11-13T14:11:12Z</time>
      </trkpt>
      <trkpt lat="48.0487" lon="-4.68986">
        <ele>13</ele>
        <time>2011-11-13T14:11:18Z</time>
      </trkpt>
      <trkpt lat="48.04865" lon="-4.68995">
        <ele>13</ele>
        <time>2011-11-13T14:11:40Z</time>
      </trkpt>
      <trkpt lat="48.0486" lon="-4.68996">
        <ele>14</ele>
        <time>2011-11-13T14:11:45Z</time>
      </trkpt>
      <trkpt lat="48.04856" lon="-4.68994">
        <ele>16</ele>
        <time>2011-11-13T14:11:49Z</time>
      </trkpt>
      <trkpt lat="48.04853" lon="-4.68999">
        <ele>16</ele>
        <time>2011-11-13T14:12:01Z</time>
      </trkpt>
      <trkpt lat="48.04858" lon="-4.69002">
        <ele>13</ele>
        <time>2011-11-13T14:12:06Z</time>
      </trkpt>
      <trkpt lat="48.04876" lon="-4.69009">
        <ele>27</ele>
        <time>2011-11-13T14:12:25Z</time>
      </trkpt>
      <trkpt lat="48.04886" lon="-4.69013">
        <ele>20</ele>
        <time>2011-11-13T14:12:37Z</time>
      </trkpt>
      <trkpt lat="48.04895" lon="-4.69017">
        <ele>33</ele>
        <time>2011-11-13T14:12:44Z</time>
      </trkpt>
      <trkpt lat="48.04914" lon="-4.69022">
        <ele>20</ele>
        <time>2011-11-13T14:13:01Z</time>
      </trkpt>
      <trkpt lat="48.04923" lon="-4.69027">
        <ele>30</ele>
        <time>2011-11-13T14:13:09Z</time>
      </trkpt>
      <trkpt lat="48.04932" lon="-4.69032">
        <ele>27</ele>
        <time>2011-11-13T14:13:22Z</time>
      </trkpt>
      <trkpt lat="48.04937" lon="-4.69034">
        <ele>28</ele>
        <time>2011-11-13T14:13:27Z</time>
      </trkpt>
      <trkpt lat="48.04942" lon="-4.69037">
        <ele>26</ele>
        <time>2011-11-13T14:13:33Z</time>
      </trkpt>
      <trkpt lat="48.04946" lon="-4.69042">
        <ele>26</ele>
        <time>2011-11-13T14:13:39Z</time>
      </trkpt>
      <trkpt lat="48.0495" lon="-4.69046">
        <ele>25</ele>
        <time>2011-11-13T14:13:43Z</time>
      </trkpt>
      <trkpt lat="48.04957" lon="-4.69057">
        <ele>28</ele>
        <time>2011-11-13T14:13:52Z</time>
      </trkpt>
      <trkpt lat="48.0496" lon="-4.69063">
        <ele>28</ele>
        <time>2011-11-13T14:13:57Z</time>
      </trkpt>
      <trkpt lat="48.04964" lon="-4.69068">
        <ele>29</ele>
        <time>2011-11-13T14:14:02Z</time>
      </trkpt>
      <trkpt lat="48.04967" lon="-4.69073">
        <ele>28</ele>
        <time>2011-11-13T14:14:07Z</time>
      </trkpt>
      <trkpt lat="48.04971" lon="-4.69078">
        <ele>30</ele>
        <time>2011-11-13T14:14:11Z</time>
      </trkpt>
      <trkpt lat="48.04974" lon="-4.69085">
        <ele>30</ele>
        <time>2011-11-13T14:14:16Z</time>
      </trkpt>
      <trkpt lat="48.04979" lon="-4.69089">
        <ele>27</ele>
        <time>2011-11-13T14:14:21Z</time>
      </trkpt>
      <trkpt lat="48.04988" lon="-4.69097">
        <ele>33</ele>
        <time>2011-11-13T14:14:30Z</time>
      </trkpt>
      <trkpt lat="48.04992" lon="-4.69099">
        <ele>28</ele>
        <time>2011-11-13T14:14:34Z</time>
      </trkpt>
      <trkpt lat="48.05004" lon="-4.69105">
        <ele>37</ele>
        <time>2011-11-13T14:14:47Z</time>
      </trkpt>
      <trkpt lat="48.05009" lon="-4.69108">
        <ele>37</ele>
        <time>2011-11-13T14:14:51Z</time>
      </trkpt>
      <trkpt lat="48.05014" lon="-4.6911">
        <ele>34</ele>
        <time>2011-11-13T14:14:55Z</time>
      </trkpt>
      <trkpt lat="48.05019" lon="-4.69112">
        <ele>35</ele>
        <time>2011-11-13T14:15:01Z</time>
      </trkpt>
      <trkpt lat="48.05026" lon="-4.69112">
        <ele>33</ele>
        <time>2011-11-13T14:15:07Z</time>
      </trkpt>
      <trkpt lat="48.05031" lon="-4.69112">
        <ele>37</ele>
        <time>2011-11-13T14:15:11Z</time>
      </trkpt>
      <trkpt lat="48.05035" lon="-4.69113">
        <ele>34</ele>
        <time>2011-11-13T14:15:15Z</time>
      </trkpt>
      <trkpt lat="48.05041" lon="-4.69113">
        <ele>38</ele>
        <time>2011-11-13T14:15:19Z</time>
      </trkpt>
      <trkpt lat="48.05046" lon="-4.69113">
        <ele>37</ele>
        <time>2011-11-13T14:15:23Z</time>
      </trkpt>
      <trkpt lat="48.05057" lon="-4.69112">
        <ele>40</ele>
        <time>2011-11-13T14:15:32Z</time>
      </trkpt>
      <trkpt lat="48.05062" lon="-4.69111">
        <ele>40</ele>
        <time>2011-11-13T14:15:37Z</time>
      </trkpt>
      <trkpt lat="48.05067" lon="-4.69111">
        <ele>42</ele>
        <time>2011-11-13T14:15:41Z</time>
      </trkpt>
      <trkpt lat="48.05072" lon="-4.69113">
        <ele>42</ele>
        <time>2011-11-13T14:15:45Z</time>
      </trkpt>
      <trkpt lat="48.05077" lon="-4.69113">
        <ele>44</ele>
        <time>2011-11-13T14:15:49Z</time>
      </trkpt>
      <trkpt lat="48.05082" lon="-4.69113">
        <ele>40</ele>
        <time>2011-11-13T14:15:54Z</time>
      </trkpt>
      <trkpt lat="48.05093" lon="-4.69113">
        <ele>43</ele>
        <time>2011-11-13T14:16:04Z</time>
      </trkpt>
      <trkpt lat="48.05098" lon="-4.69113">
        <ele>43</ele>
        <time>2011-11-13T14:16:08Z</time>
      </trkpt>
      <trkpt lat="48.05103" lon="-4.69114">
        <ele>41</ele>
        <time>2011-11-13T14:16:12Z</time>
      </trkpt>
      <trkpt lat="48.05113" lon="-4.69113">
        <ele>46</ele>
        <time>2011-11-13T14:16:20Z</time>
      </trkpt>
      <trkpt lat="48.05118" lon="-4.69113">
        <ele>45</ele>
        <time>2011-11-13T14:16:25Z</time>
      </trkpt>
      <trkpt lat="48.05124" lon="-4.69113">
        <ele>46</ele>
        <time>2011-11-13T14:16:30Z</time>
      </trkpt>
      <trkpt lat="48.05129" lon="-4.69113">
        <ele>45</ele>
        <time>2011-11-13T14:16:34Z</time>
      </trkpt>
      <trkpt lat="48.05134" lon="-4.69113">
        <ele>48</ele>
        <time>2011-11-13T14:16:38Z</time>
      </trkpt>
      <trkpt lat="48.05144" lon="-4.69113">
        <ele>45</ele>
        <time>2011-11-13T14:16:47Z</time>
      </trkpt>
      <trkpt lat="48.05154" lon="-4.69115">
        <ele>49</ele>
        <time>2011-11-13T14:16:55Z</time>
      </trkpt>
      <trkpt lat="48.05164" lon="-4.69116">
        <ele>45</ele>
        <time>2011-11-13T14:17:04Z</time>
      </trkpt>
      <trkpt lat="48.0517" lon="-4.69117">
        <ele>49</ele>
        <time>2011-11-13T14:17:08Z</time>
      </trkpt>
      <trkpt lat="48.05185" lon="-4.69118">
        <ele>47</ele>
        <time>2011-11-13T14:17:21Z</time>
      </trkpt>
      <trkpt lat="48.05189" lon="-4.69118">
        <ele>46</ele>
        <time>2011-11-13T14:17:24Z</time>
      </trkpt>
      <trkpt lat="48.05194" lon="-4.69114">
        <ele>47</ele>
        <time>2011-11-13T14:17:28Z</time>
      </trkpt>
      <trkpt lat="48.05197" lon="-4.69108">
        <ele>42</ele>
        <time>2011-11-13T14:17:33Z</time>
      </trkpt>
      <trkpt lat="48.05199" lon="-4.69099">
        <ele>40</ele>
        <time>2011-11-13T14:17:37Z</time>
      </trkpt>
      <trkpt lat="48.052" lon="-4.69092">
        <ele>45</ele>
        <time>2011-11-13T14:17:41Z</time>
      </trkpt>
      <trkpt lat="48.05201" lon="-4.69086">
        <ele>43</ele>
        <time>2011-11-13T14:17:44Z</time>
      </trkpt>
      <trkpt lat="48.05201" lon="-4.69078">
        <ele>48</ele>
        <time>2011-11-13T14:17:48Z</time>
      </trkpt>
      <trkpt lat="48.05202" lon="-4.6907">
        <ele>46</ele>
        <time>2011-11-13T14:17:52Z</time>
      </trkpt>
      <trkpt lat="48.05202" lon="-4.69062">
        <ele>47</ele>
        <time>2011-11-13T14:17:56Z</time>
      </trkpt>
      <trkpt lat="48.05201" lon="-4.69055">
        <ele>42</ele>
        <time>2011-11-13T14:18:00Z</time>
      </trkpt>
      <trkpt lat="48.05198" lon="-4.69048">
        <ele>42</ele>
        <time>2011-11-13T14:18:04Z</time>
      </trkpt>
      <trkpt lat="48.05194" lon="-4.69045">
        <ele>43</ele>
        <time>2011-11-13T14:19:09Z</time>
      </trkpt>
      <trkpt lat="48.05193" lon="-4.69038">
        <ele>46</ele>
        <time>2011-11-13T14:19:14Z</time>
      </trkpt>
      <trkpt lat="48.05192" lon="-4.69031">
        <ele>46</ele>
        <time>2011-11-13T14:19:17Z</time>
      </trkpt>
      <trkpt lat="48.0519" lon="-4.69025">
        <ele>46</ele>
        <time>2011-11-13T14:19:20Z</time>
      </trkpt>
      <trkpt lat="48.05179" lon="-4.69001">
        <ele>35</ele>
        <time>2011-11-13T14:19:36Z</time>
      </trkpt>
      <trkpt lat="48.0517" lon="-4.68982">
        <ele>41</ele>
        <time>2011-11-13T14:19:47Z</time>
      </trkpt>
      <trkpt lat="48.05166" lon="-4.68944">
        <ele>14</ele>
        <time>2011-11-13T14:20:12Z</time>
      </trkpt>
      <trkpt lat="48.05167" lon="-4.68929">
        <ele>29</ele>
        <time>2011-11-13T14:20:21Z</time>
      </trkpt>
      <trkpt lat="48.05167" lon="-4.68921">
        <ele>28</ele>
        <time>2011-11-13T14:20:24Z</time>
      </trkpt>
      <trkpt lat="48.05164" lon="-4.68891">
        <ele>37</ele>
        <time>2011-11-13T14:20:36Z</time>
      </trkpt>
      <trkpt lat="48.0516" lon="-4.68866">
        <ele>30</ele>
        <time>2011-11-13T14:20:55Z</time>
      </trkpt>
      <trkpt lat="48.05163" lon="-4.68859">
        <ele>38</ele>
        <time>2011-11-13T14:21:02Z</time>
      </trkpt>
      <trkpt lat="48.05168" lon="-4.68857">
        <ele>38</ele>
        <time>2011-11-13T14:21:07Z</time>
      </trkpt>
      <trkpt lat="48.05188" lon="-4.68847">
        <ele>48</ele>
        <time>2011-11-13T14:21:22Z</time>
      </trkpt>
      <trkpt lat="48.05193" lon="-4.68842">
        <ele>47</ele>
        <time>2011-11-13T14:21:26Z</time>
      </trkpt>
      <trkpt lat="48.05198" lon="-4.6884">
        <ele>50</ele>
        <time>2011-11-13T14:21:30Z</time>
      </trkpt>
      <trkpt lat="48.05203" lon="-4.68839">
        <ele>50</ele>
        <time>2011-11-13T14:21:36Z</time>
      </trkpt>
      <trkpt lat="48.05208" lon="-4.68837">
        <ele>48</ele>
        <time>2011-11-13T14:21:40Z</time>
      </trkpt>
      <trkpt lat="48.05211" lon="-4.68833">
        <ele>50</ele>
        <time>2011-11-13T14:21:43Z</time>
      </trkpt>
      <trkpt lat="48.05214" lon="-4.68828">
        <ele>49</ele>
        <time>2011-11-13T14:21:46Z</time>
      </trkpt>
      <trkpt lat="48.05217" lon="-4.68822">
        <ele>44</ele>
        <time>2011-11-13T14:21:51Z</time>
      </trkpt>
      <trkpt lat="48.0522" lon="-4.68813">
        <ele>45</ele>
        <time>2011-11-13T14:21:58Z</time>
      </trkpt>
      <trkpt lat="48.05224" lon="-4.68808">
        <ele>42</ele>
        <time>2011-11-13T14:22:03Z</time>
      </trkpt>
      <trkpt lat="48.05242" lon="-4.68801">
        <ele>54</ele>
        <time>2011-11-13T14:22:16Z</time>
      </trkpt>
      <trkpt lat="48.05247" lon="-4.688">
        <ele>48</ele>
        <time>2011-11-13T14:22:20Z</time>
      </trkpt>
      <trkpt lat="48.05254" lon="-4.68802">
        <ele>55</ele>
        <time>2011-11-13T14:22:26Z</time>
      </trkpt>
      <trkpt lat="48.05264" lon="-4.688">
        <ele>52</ele>
        <time>2011-11-13T14:22:34Z</time>
      </trkpt>
      <trkpt lat="48.05269" lon="-4.688">
        <ele>55</ele>
        <time>2011-11-13T14:22:38Z</time>
      </trkpt>
      <trkpt lat="48.05274" lon="-4.68799">
        <ele>54</ele>
        <time>2011-11-13T14:22:42Z</time>
      </trkpt>
      <trkpt lat="48.05279" lon="-4.68798">
        <ele>54</ele>
        <time>2011-11-13T14:22:46Z</time>
      </trkpt>
      <trkpt lat="48.05284" lon="-4.68797">
        <ele>52</ele>
        <time>2011-11-13T14:22:51Z</time>
      </trkpt>
      <trkpt lat="48.05289" lon="-4.68797">
        <ele>53</ele>
        <time>2011-11-13T14:22:55Z</time>
      </trkpt>
      <trkpt lat="48.05293" lon="-4.68796">
        <ele>50</ele>
        <time>2011-11-13T14:22:59Z</time>
      </trkpt>
      <trkpt lat="48.05298" lon="-4.68796">
        <ele>51</ele>
        <time>2011-11-13T14:23:04Z</time>
      </trkpt>
      <trkpt lat="48.05303" lon="-4.68799">
        <ele>48</ele>
        <time>2011-11-13T14:23:08Z</time>
      </trkpt>
      <trkpt lat="48.05308" lon="-4.68801">
        <ele>54</ele>
        <time>2011-11-13T14:23:13Z</time>
      </trkpt>
      <trkpt lat="48.05314" lon="-4.68804">
        <ele>54</ele>
        <time>2011-11-13T14:23:17Z</time>
      </trkpt>
      <trkpt lat="48.05318" lon="-4.68806">
        <ele>51</ele>
        <time>2011-11-13T14:23:21Z</time>
      </trkpt>
      <trkpt lat="48.05328" lon="-4.68809">
        <ele>49</ele>
        <time>2011-11-13T14:23:29Z</time>
      </trkpt>
      <trkpt lat="48.05349" lon="-4.68806">
        <ele>58</ele>
        <time>2011-11-13T14:23:44Z</time>
      </trkpt>
      <trkpt lat="48.05355" lon="-4.68804">
        <ele>56</ele>
        <time>2011-11-13T14:23:48Z</time>
      </trkpt>
      <trkpt lat="48.0536" lon="-4.68803">
        <ele>56</ele>
        <time>2011-11-13T14:23:52Z</time>
      </trkpt>
      <trkpt lat="48.05371" lon="-4.68799">
        <ele>60</ele>
        <time>2011-11-13T14:24:00Z</time>
      </trkpt>
      <trkpt lat="48.05377" lon="-4.68798">
        <ele>55</ele>
        <time>2011-11-13T14:24:04Z</time>
      </trkpt>
      <trkpt lat="48.05387" lon="-4.68794">
        <ele>58</ele>
        <time>2011-11-13T14:24:13Z</time>
      </trkpt>
      <trkpt lat="48.05392" lon="-4.68791">
        <ele>55</ele>
        <time>2011-11-13T14:24:18Z</time>
      </trkpt>
      <trkpt lat="48.05407" lon="-4.68784">
        <ele>58</ele>
        <time>2011-11-13T14:24:31Z</time>
      </trkpt>
      <trkpt lat="48.05412" lon="-4.68782">
        <ele>56</ele>
        <time>2011-11-13T14:24:35Z</time>
      </trkpt>
      <trkpt lat="48.05419" lon="-4.68779">
        <ele>60</ele>
        <time>2011-11-13T14:24:39Z</time>
      </trkpt>
      <trkpt lat="48.05424" lon="-4.68777">
        <ele>60</ele>
        <time>2011-11-13T14:24:43Z</time>
      </trkpt>
      <trkpt lat="48.05433" lon="-4.68773">
        <ele>63</ele>
        <time>2011-11-13T14:24:50Z</time>
      </trkpt>
      <trkpt lat="48.05438" lon="-4.6877">
        <ele>63</ele>
        <time>2011-11-13T14:24:54Z</time>
      </trkpt>
      <trkpt lat="48.05448" lon="-4.68766">
        <ele>60</ele>
        <time>2011-11-13T14:25:03Z</time>
      </trkpt>
      <trkpt lat="48.05457" lon="-4.6876">
        <ele>60</ele>
        <time>2011-11-13T14:25:11Z</time>
      </trkpt>
      <trkpt lat="48.05461" lon="-4.68758">
        <ele>58</ele>
        <time>2011-11-13T14:25:15Z</time>
      </trkpt>
      <trkpt lat="48.05472" lon="-4.68753">
        <ele>59</ele>
        <time>2011-11-13T14:25:23Z</time>
      </trkpt>
      <trkpt lat="48.05476" lon="-4.6875">
        <ele>61</ele>
        <time>2011-11-13T14:25:26Z</time>
      </trkpt>
      <trkpt lat="48.05481" lon="-4.68748">
        <ele>60</ele>
        <time>2011-11-13T14:25:30Z</time>
      </trkpt>
      <trkpt lat="48.05492" lon="-4.68742">
        <ele>65</ele>
        <time>2011-11-13T14:25:38Z</time>
      </trkpt>
      <trkpt lat="48.05497" lon="-4.6874">
        <ele>66</ele>
        <time>2011-11-13T14:25:42Z</time>
      </trkpt>
      <trkpt lat="48.05502" lon="-4.68736">
        <ele>63</ele>
        <time>2011-11-13T14:25:47Z</time>
      </trkpt>
      <trkpt lat="48.05507" lon="-4.68734">
        <ele>62</ele>
        <time>2011-11-13T14:25:51Z</time>
      </trkpt>
      <trkpt lat="48.05512" lon="-4.68732">
        <ele>65</ele>
        <time>2011-11-13T14:25:54Z</time>
      </trkpt>
      <trkpt lat="48.05517" lon="-4.68731">
        <ele>65</ele>
        <time>2011-11-13T14:25:57Z</time>
      </trkpt>
      <trkpt lat="48.05521" lon="-4.68728">
        <ele>65</ele>
        <time>2011-11-13T14:26:01Z</time>
      </trkpt>
      <trkpt lat="48.05526" lon="-4.68727">
        <ele>63</ele>
        <time>2011-11-13T14:26:06Z</time>
      </trkpt>
      <trkpt lat="48.05537" lon="-4.68725">
        <ele>66</ele>
        <time>2011-11-13T14:26:14Z</time>
      </trkpt>
      <trkpt lat="48.05542" lon="-4.68724">
        <ele>66</ele>
        <time>2011-11-13T14:26:18Z</time>
      </trkpt>
      <trkpt lat="48.05547" lon="-4.68724">
        <ele>66</ele>
        <time>2011-11-13T14:26:22Z</time>
      </trkpt>
      <trkpt lat="48.05551" lon="-4.68723">
        <ele>62</ele>
        <time>2011-11-13T14:26:26Z</time>
      </trkpt>
      <trkpt lat="48.05561" lon="-4.68722">
        <ele>66</ele>
        <time>2011-11-13T14:26:34Z</time>
      </trkpt>
      <trkpt lat="48.05567" lon="-4.68721">
        <ele>66</ele>
        <time>2011-11-13T14:26:38Z</time>
      </trkpt>
      <trkpt lat="48.05572" lon="-4.68721">
        <ele>67</ele>
        <time>2011-11-13T14:26:42Z</time>
      </trkpt>
      <trkpt lat="48.05577" lon="-4.6872">
        <ele>65</ele>
        <time>2011-11-13T14:26:46Z</time>
      </trkpt>
      <trkpt lat="48.05587" lon="-4.68719">
        <ele>68</ele>
        <time>2011-11-13T14:26:54Z</time>
      </trkpt>
      <trkpt lat="48.05592" lon="-4.68718">
        <ele>67</ele>
        <time>2011-11-13T14:26:58Z</time>
      </trkpt>
      <trkpt lat="48.05608" lon="-4.68715">
        <ele>71</ele>
        <time>2011-11-13T14:27:09Z</time>
      </trkpt>
      <trkpt lat="48.05613" lon="-4.68715">
        <ele>69</ele>
        <time>2011-11-13T14:27:13Z</time>
      </trkpt>
      <trkpt lat="48.05618" lon="-4.68714">
        <ele>69</ele>
        <time>2011-11-13T14:27:17Z</time>
      </trkpt>
      <trkpt lat="48.05624" lon="-4.68713">
        <ele>71</ele>
        <time>2011-11-13T14:27:22Z</time>
      </trkpt>
      <trkpt lat="48.05629" lon="-4.68711">
        <ele>70</ele>
        <time>2011-11-13T14:27:26Z</time>
      </trkpt>
      <trkpt lat="48.05633" lon="-4.6871">
        <ele>72</ele>
        <time>2011-11-13T14:27:29Z</time>
      </trkpt>
      <trkpt lat="48.05637" lon="-4.68705">
        <ele>70</ele>
        <time>2011-11-13T14:27:33Z</time>
      </trkpt>
      <trkpt lat="48.05641" lon="-4.68683">
        <ele>56</ele>
        <time>2011-11-13T14:27:44Z</time>
      </trkpt>
      <trkpt lat="48.05642" lon="-4.68676">
        <ele>61</ele>
        <time>2011-11-13T14:27:47Z</time>
      </trkpt>
      <trkpt lat="48.05641" lon="-4.68668">
        <ele>62</ele>
        <time>2011-11-13T14:27:51Z</time>
      </trkpt>
      <trkpt lat="48.0564" lon="-4.6866">
        <ele>61</ele>
        <time>2011-11-13T14:27:55Z</time>
      </trkpt>
      <trkpt lat="48.05639" lon="-4.68654">
        <ele>66</ele>
        <time>2011-11-13T14:27:59Z</time>
      </trkpt>
      <trkpt lat="48.05638" lon="-4.68646">
        <ele>64</ele>
        <time>2011-11-13T14:28:03Z</time>
      </trkpt>
      <trkpt lat="48.05636" lon="-4.6864">
        <ele>64</ele>
        <time>2011-11-13T14:28:06Z</time>
      </trkpt>
      <trkpt lat="48.05635" lon="-4.68633">
        <ele>70</ele>
        <time>2011-11-13T14:28:09Z</time>
      </trkpt>
      <trkpt lat="48.05636" lon="-4.68625">
        <ele>67</ele>
        <time>2011-11-13T14:28:13Z</time>
      </trkpt>
      <trkpt lat="48.05641" lon="-4.68622">
        <ele>70</ele>
        <time>2011-11-13T14:28:19Z</time>
      </trkpt>
      <trkpt lat="48.0565" lon="-4.68621">
        <ele>66</ele>
        <time>2011-11-13T14:28:28Z</time>
      </trkpt>
      <trkpt lat="48.05663" lon="-4.68622">
        <ele>70</ele>
        <time>2011-11-13T14:28:45Z</time>
      </trkpt>
      <trkpt lat="48.05667" lon="-4.68622">
        <ele>68</ele>
        <time>2011-11-13T14:28:49Z</time>
      </trkpt>
      <trkpt lat="48.05688" lon="-4.68619">
        <ele>73</ele>
        <time>2011-11-13T14:29:04Z</time>
      </trkpt>
      <trkpt lat="48.05693" lon="-4.68618">
        <ele>73</ele>
        <time>2011-11-13T14:29:09Z</time>
      </trkpt>
      <trkpt lat="48.05705" lon="-4.68616">
        <ele>71</ele>
        <time>2011-11-13T14:29:20Z</time>
      </trkpt>
      <trkpt lat="48.05711" lon="-4.68614">
        <ele>72</ele>
        <time>2011-11-13T14:29:25Z</time>
      </trkpt>
      <trkpt lat="48.05716" lon="-4.68612">
        <ele>67</ele>
        <time>2011-11-13T14:29:30Z</time>
      </trkpt>
      <trkpt lat="48.05721" lon="-4.68617">
        <ele>68</ele>
        <time>2011-11-13T14:29:35Z</time>
      </trkpt>
      <trkpt lat="48.05726" lon="-4.68622">
        <ele>68</ele>
        <time>2011-11-13T14:29:39Z</time>
      </trkpt>
      <trkpt lat="48.05732" lon="-4.68622">
        <ele>67</ele>
        <time>2011-11-13T14:29:43Z</time>
      </trkpt>
      <trkpt lat="48.05736" lon="-4.68623">
        <ele>68</ele>
        <time>2011-11-13T14:29:47Z</time>
      </trkpt>
      <trkpt lat="48.05742" lon="-4.68625">
        <ele>67</ele>
        <time>2011-11-13T14:29:51Z</time>
      </trkpt>
      <trkpt lat="48.05756" lon="-4.68634">
        <ele>72</ele>
        <time>2011-11-13T14:30:00Z</time>
      </trkpt>
      <trkpt lat="48.05761" lon="-4.68636">
        <ele>70</ele>
        <time>2011-11-13T14:30:05Z</time>
      </trkpt>
      <trkpt lat="48.0577" lon="-4.6864">
        <ele>71</ele>
        <time>2011-11-13T14:30:12Z</time>
      </trkpt>
      <trkpt lat="48.05775" lon="-4.68642">
        <ele>70</ele>
        <time>2011-11-13T14:30:16Z</time>
      </trkpt>
      <trkpt lat="48.0578" lon="-4.68642">
        <ele>70</ele>
        <time>2011-11-13T14:30:20Z</time>
      </trkpt>
      <trkpt lat="48.05794" lon="-4.68649">
        <ele>66</ele>
        <time>2011-11-13T14:30:32Z</time>
      </trkpt>
      <trkpt lat="48.058" lon="-4.6865">
        <ele>68</ele>
        <time>2011-11-13T14:30:36Z</time>
      </trkpt>
      <trkpt lat="48.05805" lon="-4.68651">
        <ele>67</ele>
        <time>2011-11-13T14:30:40Z</time>
      </trkpt>
      <trkpt lat="48.0581" lon="-4.68652">
        <ele>67</ele>
        <time>2011-11-13T14:30:44Z</time>
      </trkpt>
      <trkpt lat="48.05816" lon="-4.68654">
        <ele>69</ele>
        <time>2011-11-13T14:30:48Z</time>
      </trkpt>
      <trkpt lat="48.05821" lon="-4.68655">
        <ele>67</ele>
        <time>2011-11-13T14:30:52Z</time>
      </trkpt>
      <trkpt lat="48.05831" lon="-4.68658">
        <ele>68</ele>
        <time>2011-11-13T14:31:00Z</time>
      </trkpt>
      <trkpt lat="48.05837" lon="-4.6866">
        <ele>65</ele>
        <time>2011-11-13T14:31:05Z</time>
      </trkpt>
      <trkpt lat="48.05842" lon="-4.68663">
        <ele>66</ele>
        <time>2011-11-13T14:31:09Z</time>
      </trkpt>
      <trkpt lat="48.05858" lon="-4.68666">
        <ele>64</ele>
        <time>2011-11-13T14:31:23Z</time>
      </trkpt>
      <trkpt lat="48.05864" lon="-4.68669">
        <ele>61</ele>
        <time>2011-11-13T14:31:28Z</time>
      </trkpt>
      <trkpt lat="48.0587" lon="-4.68674">
        <ele>60</ele>
        <time>2011-11-13T14:31:33Z</time>
      </trkpt>
      <trkpt lat="48.05875" lon="-4.68677">
        <ele>64</ele>
        <time>2011-11-13T14:31:36Z</time>
      </trkpt>
      <trkpt lat="48.0588" lon="-4.68679">
        <ele>63</ele>
        <time>2011-11-13T14:31:39Z</time>
      </trkpt>
      <trkpt lat="48.05885" lon="-4.6868">
        <ele>65</ele>
        <time>2011-11-13T14:31:43Z</time>
      </trkpt>
      <trkpt lat="48.0589" lon="-4.68681">
        <ele>63</ele>
        <time>2011-11-13T14:31:47Z</time>
      </trkpt>
      <trkpt lat="48.05895" lon="-4.68683">
        <ele>63</ele>
        <time>2011-11-13T14:31:51Z</time>
      </trkpt>
      <trkpt lat="48.05901" lon="-4.68684">
        <ele>63</ele>
        <time>2011-11-13T14:31:56Z</time>
      </trkpt>
      <trkpt lat="48.05905" lon="-4.68686">
        <ele>61</ele>
        <time>2011-11-13T14:32:00Z</time>
      </trkpt>
      <trkpt lat="48.05911" lon="-4.68688">
        <ele>65</ele>
        <time>2011-11-13T14:32:04Z</time>
      </trkpt>
      <trkpt lat="48.05916" lon="-4.68689">
        <ele>62</ele>
        <time>2011-11-13T14:32:08Z</time>
      </trkpt>
      <trkpt lat="48.05922" lon="-4.68691">
        <ele>64</ele>
        <time>2011-11-13T14:32:12Z</time>
      </trkpt>
      <trkpt lat="48.05926" lon="-4.68692">
        <ele>62</ele>
        <time>2011-11-13T14:32:16Z</time>
      </trkpt>
      <trkpt lat="48.05931" lon="-4.68694">
        <ele>63</ele>
        <time>2011-11-13T14:32:20Z</time>
      </trkpt>
      <trkpt lat="48.05936" lon="-4.68695">
        <ele>63</ele>
        <time>2011-11-13T14:32:24Z</time>
      </trkpt>
      <trkpt lat="48.0594" lon="-4.68697">
        <ele>66</ele>
        <time>2011-11-13T14:32:27Z</time>
      </trkpt>
      <trkpt lat="48.05949" lon="-4.68702">
        <ele>60</ele>
        <time>2011-11-13T14:32:36Z</time>
      </trkpt>
      <trkpt lat="48.05954" lon="-4.68702">
        <ele>60</ele>
        <time>2011-11-13T14:32:42Z</time>
      </trkpt>
      <trkpt lat="48.05957" lon="-4.68702">
        <ele>62</ele>
        <time>2011-11-13T14:32:49Z</time>
      </trkpt>
      <trkpt lat="48.05963" lon="-4.68703">
        <ele>60</ele>
        <time>2011-11-13T14:32:53Z</time>
      </trkpt>
      <trkpt lat="48.05968" lon="-4.68704">
        <ele>60</ele>
        <time>2011-11-13T14:32:57Z</time>
      </trkpt>
      <trkpt lat="48.05977" lon="-4.68709">
        <ele>60</ele>
        <time>2011-11-13T14:33:05Z</time>
      </trkpt>
      <trkpt lat="48.05982" lon="-4.68711">
        <ele>59</ele>
        <time>2011-11-13T14:33:09Z</time>
      </trkpt>
      <trkpt lat="48.05988" lon="-4.68714">
        <ele>61</ele>
        <time>2011-11-13T14:33:13Z</time>
      </trkpt>
      <trkpt lat="48.05993" lon="-4.68715">
        <ele>60</ele>
        <time>2011-11-13T14:33:17Z</time>
      </trkpt>
      <trkpt lat="48.05998" lon="-4.68716">
        <ele>60</ele>
        <time>2011-11-13T14:33:20Z</time>
      </trkpt>
      <trkpt lat="48.06011" lon="-4.68718">
        <ele>60</ele>
        <time>2011-11-13T14:33:44Z</time>
      </trkpt>
      <trkpt lat="48.06016" lon="-4.6872">
        <ele>62</ele>
        <time>2011-11-13T14:34:01Z</time>
      </trkpt>
      <trkpt lat="48.06026" lon="-4.68723">
        <ele>56</ele>
        <time>2011-11-13T14:34:09Z</time>
      </trkpt>
      <trkpt lat="48.0603" lon="-4.68725">
        <ele>57</ele>
        <time>2011-11-13T14:34:12Z</time>
      </trkpt>
      <trkpt lat="48.06035" lon="-4.68726">
        <ele>56</ele>
        <time>2011-11-13T14:34:17Z</time>
      </trkpt>
      <trkpt lat="48.06039" lon="-4.68731">
        <ele>53</ele>
        <time>2011-11-13T14:34:24Z</time>
      </trkpt>
      <trkpt lat="48.06048" lon="-4.68736">
        <ele>58</ele>
        <time>2011-11-13T14:34:32Z</time>
      </trkpt>
      <trkpt lat="48.06054" lon="-4.68737">
        <ele>55</ele>
        <time>2011-11-13T14:34:37Z</time>
      </trkpt>
      <trkpt lat="48.06063" lon="-4.68733">
        <ele>51</ele>
        <time>2011-11-13T14:34:59Z</time>
      </trkpt>
      <trkpt lat="48.06068" lon="-4.68736">
        <ele>55</ele>
        <time>2011-11-13T14:35:02Z</time>
      </trkpt>
      <trkpt lat="48.06077" lon="-4.68743">
        <ele>54</ele>
        <time>2011-11-13T14:35:10Z</time>
      </trkpt>
      <trkpt lat="48.06081" lon="-4.68748">
        <ele>54</ele>
        <time>2011-11-13T14:35:14Z</time>
      </trkpt>
      <trkpt lat="48.06085" lon="-4.68753">
        <ele>56</ele>
        <time>2011-11-13T14:35:18Z</time>
      </trkpt>
      <trkpt lat="48.06088" lon="-4.68756">
        <ele>55</ele>
        <time>2011-11-13T14:35:22Z</time>
      </trkpt>
      <trkpt lat="48.06104" lon="-4.68762">
        <ele>57</ele>
        <time>2011-11-13T14:35:32Z</time>
      </trkpt>
      <trkpt lat="48.06113" lon="-4.68766">
        <ele>51</ele>
        <time>2011-11-13T14:35:41Z</time>
      </trkpt>
      <trkpt lat="48.06116" lon="-4.6877">
        <ele>51</ele>
        <time>2011-11-13T14:35:50Z</time>
      </trkpt>
      <trkpt lat="48.06124" lon="-4.68779">
        <ele>56</ele>
        <time>2011-11-13T14:36:07Z</time>
      </trkpt>
      <trkpt lat="48.06127" lon="-4.68784">
        <ele>52</ele>
        <time>2011-11-13T14:36:11Z</time>
      </trkpt>
      <trkpt lat="48.0613" lon="-4.68789">
        <ele>53</ele>
        <time>2011-11-13T14:36:15Z</time>
      </trkpt>
      <trkpt lat="48.06134" lon="-4.68795">
        <ele>49</ele>
        <time>2011-11-13T14:36:19Z</time>
      </trkpt>
      <trkpt lat="48.06137" lon="-4.68801">
        <ele>50</ele>
        <time>2011-11-13T14:36:23Z</time>
      </trkpt>
      <trkpt lat="48.06138" lon="-4.68808">
        <ele>48</ele>
        <time>2011-11-13T14:36:27Z</time>
      </trkpt>
      <trkpt lat="48.06142" lon="-4.68828">
        <ele>54</ele>
        <time>2011-11-13T14:36:37Z</time>
      </trkpt>
      <trkpt lat="48.06143" lon="-4.68836">
        <ele>50</ele>
        <time>2011-11-13T14:36:42Z</time>
      </trkpt>
      <trkpt lat="48.06146" lon="-4.6885">
        <ele>51</ele>
        <time>2011-11-13T14:36:49Z</time>
      </trkpt>
      <trkpt lat="48.06144" lon="-4.68865">
        <ele>48</ele>
        <time>2011-11-13T14:37:00Z</time>
      </trkpt>
      <trkpt lat="48.06138" lon="-4.68877">
        <ele>53</ele>
        <time>2011-11-13T14:37:09Z</time>
      </trkpt>
      <trkpt lat="48.06135" lon="-4.68883">
        <ele>51</ele>
        <time>2011-11-13T14:37:13Z</time>
      </trkpt>
      <trkpt lat="48.06131" lon="-4.68888">
        <ele>52</ele>
        <time>2011-11-13T14:37:17Z</time>
      </trkpt>
      <trkpt lat="48.06127" lon="-4.68894">
        <ele>51</ele>
        <time>2011-11-13T14:37:21Z</time>
      </trkpt>
      <trkpt lat="48.06124" lon="-4.68901">
        <ele>52</ele>
        <time>2011-11-13T14:37:25Z</time>
      </trkpt>
      <trkpt lat="48.0612" lon="-4.68905">
        <ele>52</ele>
        <time>2011-11-13T14:37:29Z</time>
      </trkpt>
      <trkpt lat="48.06115" lon="-4.68908">
        <ele>51</ele>
        <time>2011-11-13T14:37:34Z</time>
      </trkpt>
      <trkpt lat="48.06111" lon="-4.68913">
        <ele>51</ele>
        <time>2011-11-13T14:37:38Z</time>
      </trkpt>
      <trkpt lat="48.06113" lon="-4.6892">
        <ele>59</ele>
        <time>2011-11-13T14:37:47Z</time>
      </trkpt>
      <trkpt lat="48.06113" lon="-4.68924">
        <ele>52</ele>
        <time>2011-11-13T14:37:54Z</time>
      </trkpt>
      <trkpt lat="48.0611" lon="-4.6893">
        <ele>47</ele>
        <time>2011-11-13T14:38:05Z</time>
      </trkpt>
      <trkpt lat="48.06104" lon="-4.68935">
        <ele>47</ele>
        <time>2011-11-13T14:38:10Z</time>
      </trkpt>
      <trkpt lat="48.06099" lon="-4.68938">
        <ele>45</ele>
        <time>2011-11-13T14:38:14Z</time>
      </trkpt>
      <trkpt lat="48.06094" lon="-4.68941">
        <ele>45</ele>
        <time>2011-11-13T14:38:18Z</time>
      </trkpt>
      <trkpt lat="48.0609" lon="-4.68943">
        <ele>47</ele>
        <time>2011-11-13T14:38:23Z</time>
      </trkpt>
      <trkpt lat="48.06083" lon="-4.68952">
        <ele>48</ele>
        <time>2011-11-13T14:38:29Z</time>
      </trkpt>
      <trkpt lat="48.0608" lon="-4.68967">
        <ele>44</ele>
        <time>2011-11-13T14:38:36Z</time>
      </trkpt>
      <trkpt lat="48.06078" lon="-4.68975">
        <ele>47</ele>
        <time>2011-11-13T14:38:41Z</time>
      </trkpt>
      <trkpt lat="48.06079" lon="-4.68981">
        <ele>44</ele>
        <time>2011-11-13T14:38:44Z</time>
      </trkpt>
      <trkpt lat="48.06081" lon="-4.68988">
        <ele>44</ele>
        <time>2011-11-13T14:38:47Z</time>
      </trkpt>
      <trkpt lat="48.06082" lon="-4.69007">
        <ele>47</ele>
        <time>2011-11-13T14:39:03Z</time>
      </trkpt>
      <trkpt lat="48.06085" lon="-4.69014">
        <ele>47</ele>
        <time>2011-11-13T14:39:11Z</time>
      </trkpt>
      <trkpt lat="48.06088" lon="-4.6902">
        <ele>48</ele>
        <time>2011-11-13T14:39:15Z</time>
      </trkpt>
      <trkpt lat="48.06092" lon="-4.69032">
        <ele>49</ele>
        <time>2011-11-13T14:39:25Z</time>
      </trkpt>
      <trkpt lat="48.06096" lon="-4.69061">
        <ele>42</ele>
        <time>2011-11-13T14:39:41Z</time>
      </trkpt>
      <trkpt lat="48.06094" lon="-4.69068">
        <ele>46</ele>
        <time>2011-11-13T14:39:50Z</time>
      </trkpt>
      <trkpt lat="48.06094" lon="-4.69076">
        <ele>42</ele>
        <time>2011-11-13T14:39:54Z</time>
      </trkpt>
      <trkpt lat="48.06093" lon="-4.69083">
        <ele>43</ele>
        <time>2011-11-13T14:39:59Z</time>
      </trkpt>
      <trkpt lat="48.06089" lon="-4.69096">
        <ele>45</ele>
        <time>2011-11-13T14:40:07Z</time>
      </trkpt>
      <trkpt lat="48.06088" lon="-4.69103">
        <ele>40</ele>
        <time>2011-11-13T14:40:11Z</time>
      </trkpt>
      <trkpt lat="48.06089" lon="-4.69109">
        <ele>45</ele>
        <time>2011-11-13T14:40:17Z</time>
      </trkpt>
      <trkpt lat="48.06092" lon="-4.69123">
        <ele>40</ele>
        <time>2011-11-13T14:40:26Z</time>
      </trkpt>
      <trkpt lat="48.06088" lon="-4.69127">
        <ele>39</ele>
        <time>2011-11-13T14:40:33Z</time>
      </trkpt>
      <trkpt lat="48.0608" lon="-4.69136">
        <ele>37</ele>
        <time>2011-11-13T14:40:43Z</time>
      </trkpt>
      <trkpt lat="48.06079" lon="-4.69144">
        <ele>37</ele>
        <time>2011-11-13T14:40:47Z</time>
      </trkpt>
      <trkpt lat="48.06079" lon="-4.69151">
        <ele>37</ele>
        <time>2011-11-13T14:40:52Z</time>
      </trkpt>
      <trkpt lat="48.06083" lon="-4.69155">
        <ele>38</ele>
        <time>2011-11-13T14:40:56Z</time>
      </trkpt>
      <trkpt lat="48.06086" lon="-4.6916">
        <ele>36</ele>
        <time>2011-11-13T14:41:01Z</time>
      </trkpt>
      <trkpt lat="48.06091" lon="-4.69163">
        <ele>44</ele>
        <time>2011-11-13T14:41:32Z</time>
      </trkpt>
      <trkpt lat="48.06095" lon="-4.69168">
        <ele>35</ele>
        <time>2011-11-13T14:41:36Z</time>
      </trkpt>
      <trkpt lat="48.06104" lon="-4.69176">
        <ele>37</ele>
        <time>2011-11-13T14:41:47Z</time>
      </trkpt>
      <trkpt lat="48.06114" lon="-4.69195">
        <ele>33</ele>
        <time>2011-11-13T14:42:04Z</time>
      </trkpt>
      <trkpt lat="48.06117" lon="-4.69202">
        <ele>36</ele>
        <time>2011-11-13T14:42:08Z</time>
      </trkpt>
      <trkpt lat="48.06116" lon="-4.69209">
        <ele>32</ele>
        <time>2011-11-13T14:42:14Z</time>
      </trkpt>
      <trkpt lat="48.06112" lon="-4.69212">
        <ele>33</ele>
        <time>2011-11-13T14:42:21Z</time>
      </trkpt>
      <trkpt lat="48.06106" lon="-4.69213">
        <ele>38</ele>
        <time>2011-11-13T14:42:26Z</time>
      </trkpt>
      <trkpt lat="48.06101" lon="-4.69213">
        <ele>35</ele>
        <time>2011-11-13T14:42:31Z</time>
      </trkpt>
      <trkpt lat="48.0609" lon="-4.69213">
        <ele>44</ele>
        <time>2011-11-13T14:42:39Z</time>
      </trkpt>
      <trkpt lat="48.06081" lon="-4.69216">
        <ele>38</ele>
        <time>2011-11-13T14:42:48Z</time>
      </trkpt>
      <trkpt lat="48.06076" lon="-4.69219">
        <ele>41</ele>
        <time>2011-11-13T14:42:53Z</time>
      </trkpt>
      <trkpt lat="48.06071" lon="-4.69222">
        <ele>38</ele>
        <time>2011-11-13T14:42:58Z</time>
      </trkpt>
      <trkpt lat="48.06056" lon="-4.69225">
        <ele>46</ele>
        <time>2011-11-13T14:43:13Z</time>
      </trkpt>
      <trkpt lat="48.06051" lon="-4.69227">
        <ele>43</ele>
        <time>2011-11-13T14:43:18Z</time>
      </trkpt>
      <trkpt lat="48.06046" lon="-4.69227">
        <ele>44</ele>
        <time>2011-11-13T14:43:24Z</time>
      </trkpt>
      <trkpt lat="48.06042" lon="-4.69229">
        <ele>44</ele>
        <time>2011-11-13T14:43:37Z</time>
      </trkpt>
      <trkpt lat="48.06038" lon="-4.69237">
        <ele>44</ele>
        <time>2011-11-13T14:43:49Z</time>
      </trkpt>
      <trkpt lat="48.06033" lon="-4.6924">
        <ele>45</ele>
        <time>2011-11-13T14:43:53Z</time>
      </trkpt>
      <trkpt lat="48.06028" lon="-4.6924">
        <ele>43</ele>
        <time>2011-11-13T14:43:58Z</time>
      </trkpt>
      <trkpt lat="48.06015" lon="-4.69252">
        <ele>46</ele>
        <time>2011-11-13T14:44:18Z</time>
      </trkpt>
      <trkpt lat="48.06011" lon="-4.69257">
        <ele>46</ele>
        <time>2011-11-13T14:44:23Z</time>
      </trkpt>
      <trkpt lat="48.06002" lon="-4.69261">
        <ele>47</ele>
        <time>2011-11-13T14:44:31Z</time>
      </trkpt>
      <trkpt lat="48.05997" lon="-4.6926">
        <ele>48</ele>
        <time>2011-11-13T14:44:35Z</time>
      </trkpt>
      <trkpt lat="48.05992" lon="-4.69258">
        <ele>46</ele>
        <time>2011-11-13T14:44:42Z</time>
      </trkpt>
      <trkpt lat="48.05972" lon="-4.69246">
        <ele>52</ele>
        <time>2011-11-13T14:45:03Z</time>
      </trkpt>
      <trkpt lat="48.05967" lon="-4.69247">
        <ele>51</ele>
        <time>2011-11-13T14:45:09Z</time>
      </trkpt>
      <trkpt lat="48.05963" lon="-4.69251">
        <ele>51</ele>
        <time>2011-11-13T14:45:13Z</time>
      </trkpt>
      <trkpt lat="48.05955" lon="-4.69255">
        <ele>54</ele>
        <time>2011-11-13T14:45:21Z</time>
      </trkpt>
      <trkpt lat="48.0595" lon="-4.69252">
        <ele>51</ele>
        <time>2011-11-13T14:45:27Z</time>
      </trkpt>
      <trkpt lat="48.0594" lon="-4.69253">
        <ele>56</ele>
        <time>2011-11-13T14:45:36Z</time>
      </trkpt>
      <trkpt lat="48.05936" lon="-4.69249">
        <ele>57</ele>
        <time>2011-11-13T14:45:42Z</time>
      </trkpt>
      <trkpt lat="48.05932" lon="-4.69245">
        <ele>59</ele>
        <time>2011-11-13T14:45:46Z</time>
      </trkpt>
      <trkpt lat="48.05927" lon="-4.69245">
        <ele>58</ele>
        <time>2011-11-13T14:45:51Z</time>
      </trkpt>
      <trkpt lat="48.05923" lon="-4.6925">
        <ele>57</ele>
        <time>2011-11-13T14:45:56Z</time>
      </trkpt>
      <trkpt lat="48.05918" lon="-4.69254">
        <ele>59</ele>
        <time>2011-11-13T14:46:01Z</time>
      </trkpt>
      <trkpt lat="48.05916" lon="-4.69259">
        <ele>59</ele>
        <time>2011-11-13T14:46:06Z</time>
      </trkpt>
      <trkpt lat="48.05913" lon="-4.69265">
        <ele>58</ele>
        <time>2011-11-13T14:46:11Z</time>
      </trkpt>
      <trkpt lat="48.05911" lon="-4.69272">
        <ele>59</ele>
        <time>2011-11-13T14:46:16Z</time>
      </trkpt>
      <trkpt lat="48.05909" lon="-4.69279">
        <ele>60</ele>
        <time>2011-11-13T14:46:20Z</time>
      </trkpt>
      <trkpt lat="48.05907" lon="-4.69286">
        <ele>60</ele>
        <time>2011-11-13T14:46:24Z</time>
      </trkpt>
      <trkpt lat="48.05906" lon="-4.69303">
        <ele>54</ele>
        <time>2011-11-13T14:46:34Z</time>
      </trkpt>
      <trkpt lat="48.05903" lon="-4.69309">
        <ele>54</ele>
        <time>2011-11-13T14:46:39Z</time>
      </trkpt>
      <trkpt lat="48.05899" lon="-4.69321">
        <ele>56</ele>
        <time>2011-11-13T14:46:47Z</time>
      </trkpt>
      <trkpt lat="48.05897" lon="-4.69327">
        <ele>55</ele>
        <time>2011-11-13T14:46:51Z</time>
      </trkpt>
      <trkpt lat="48.05897" lon="-4.69334">
        <ele>54</ele>
        <time>2011-11-13T14:46:55Z</time>
      </trkpt>
      <trkpt lat="48.059" lon="-4.69338">
        <ele>54</ele>
        <time>2011-11-13T14:47:02Z</time>
      </trkpt>
      <trkpt lat="48.05905" lon="-4.69339">
        <ele>53</ele>
        <time>2011-11-13T14:47:06Z</time>
      </trkpt>
      <trkpt lat="48.0591" lon="-4.69342">
        <ele>55</ele>
        <time>2011-11-13T14:47:10Z</time>
      </trkpt>
      <trkpt lat="48.05914" lon="-4.69346">
        <ele>55</ele>
        <time>2011-11-13T14:47:14Z</time>
      </trkpt>
      <trkpt lat="48.05931" lon="-4.6936">
        <ele>50</ele>
        <time>2011-11-13T14:47:30Z</time>
      </trkpt>
      <trkpt lat="48.05931" lon="-4.69368">
        <ele>55</ele>
        <time>2011-11-13T14:47:34Z</time>
      </trkpt>
      <trkpt lat="48.05931" lon="-4.69375">
        <ele>52</ele>
        <time>2011-11-13T14:47:39Z</time>
      </trkpt>
      <trkpt lat="48.05933" lon="-4.69377">
        <ele>54</ele>
        <time>2011-11-13T14:47:57Z</time>
      </trkpt>
      <trkpt lat="48.05933" lon="-4.69384">
        <ele>53</ele>
        <time>2011-11-13T14:48:02Z</time>
      </trkpt>
      <trkpt lat="48.05933" lon="-4.69391">
        <ele>56</ele>
        <time>2011-11-13T14:48:05Z</time>
      </trkpt>
      <trkpt lat="48.05933" lon="-4.69406">
        <ele>51</ele>
        <time>2011-11-13T14:48:13Z</time>
      </trkpt>
      <trkpt lat="48.05933" lon="-4.69402">
        <ele>59</ele>
        <time>2011-11-13T14:49:42Z</time>
      </trkpt>
      <trkpt lat="48.05933" lon="-4.69396">
        <ele>57</ele>
        <time>2011-11-13T14:49:46Z</time>
      </trkpt>
      <trkpt lat="48.05934" lon="-4.69389">
        <ele>66</ele>
        <time>2011-11-13T14:49:52Z</time>
      </trkpt>
      <trkpt lat="48.05934" lon="-4.69382">
        <ele>61</ele>
        <time>2011-11-13T14:49:57Z</time>
      </trkpt>
      <trkpt lat="48.05938" lon="-4.69381">
        <ele>53</ele>
        <time>2011-11-13T14:50:49Z</time>
      </trkpt>
      <trkpt lat="48.0594" lon="-4.69387">
        <ele>55</ele>
        <time>2011-11-13T14:50:53Z</time>
      </trkpt>
      <trkpt lat="48.05944" lon="-4.69394">
        <ele>56</ele>
        <time>2011-11-13T14:50:57Z</time>
      </trkpt>
      <trkpt lat="48.05947" lon="-4.69399">
        <ele>56</ele>
        <time>2011-11-13T14:51:01Z</time>
      </trkpt>
      <trkpt lat="48.05949" lon="-4.69406">
        <ele>55</ele>
        <time>2011-11-13T14:51:05Z</time>
      </trkpt>
      <trkpt lat="48.05953" lon="-4.69412">
        <ele>55</ele>
        <time>2011-11-13T14:51:09Z</time>
      </trkpt>
      <trkpt lat="48.05956" lon="-4.69418">
        <ele>52</ele>
        <time>2011-11-13T14:51:13Z</time>
      </trkpt>
      <trkpt lat="48.05958" lon="-4.69431">
        <ele>56</ele>
        <time>2011-11-13T14:51:21Z</time>
      </trkpt>
      <trkpt lat="48.05962" lon="-4.69436">
        <ele>56</ele>
        <time>2011-11-13T14:51:26Z</time>
      </trkpt>
      <trkpt lat="48.05967" lon="-4.69439">
        <ele>54</ele>
        <time>2011-11-13T14:51:31Z</time>
      </trkpt>
      <trkpt lat="48.05971" lon="-4.69448">
        <ele>54</ele>
        <time>2011-11-13T14:51:38Z</time>
      </trkpt>
      <trkpt lat="48.05975" lon="-4.69448">
        <ele>53</ele>
        <time>2011-11-13T14:51:42Z</time>
      </trkpt>
      <trkpt lat="48.0598" lon="-4.69448">
        <ele>54</ele>
        <time>2011-11-13T14:51:47Z</time>
      </trkpt>
      <trkpt lat="48.05983" lon="-4.69454">
        <ele>53</ele>
        <time>2011-11-13T14:51:51Z</time>
      </trkpt>
      <trkpt lat="48.05991" lon="-4.69466">
        <ele>55</ele>
        <time>2011-11-13T14:52:01Z</time>
      </trkpt>
      <trkpt lat="48.05992" lon="-4.69472">
        <ele>50</ele>
        <time>2011-11-13T14:52:05Z</time>
      </trkpt>
      <trkpt lat="48.05991" lon="-4.69479">
        <ele>49</ele>
        <time>2011-11-13T14:52:10Z</time>
      </trkpt>
      <trkpt lat="48.05991" lon="-4.69486">
        <ele>49</ele>
        <time>2011-11-13T14:52:16Z</time>
      </trkpt>
      <trkpt lat="48.05991" lon="-4.69494">
        <ele>51</ele>
        <time>2011-11-13T14:52:21Z</time>
      </trkpt>
      <trkpt lat="48.05988" lon="-4.69499">
        <ele>54</ele>
        <time>2011-11-13T14:52:26Z</time>
      </trkpt>
      <trkpt lat="48.05987" lon="-4.69505">
        <ele>57</ele>
        <time>2011-11-13T14:52:30Z</time>
      </trkpt>
      <trkpt lat="48.05987" lon="-4.69513">
        <ele>53</ele>
        <time>2011-11-13T14:52:36Z</time>
      </trkpt>
      <trkpt lat="48.05987" lon="-4.69521">
        <ele>55</ele>
        <time>2011-11-13T14:52:42Z</time>
      </trkpt>
      <trkpt lat="48.05988" lon="-4.69529">
        <ele>55</ele>
        <time>2011-11-13T14:52:47Z</time>
      </trkpt>
      <trkpt lat="48.0599" lon="-4.69544">
        <ele>58</ele>
        <time>2011-11-13T14:52:56Z</time>
      </trkpt>
      <trkpt lat="48.05993" lon="-4.69548">
        <ele>57</ele>
        <time>2011-11-13T14:53:02Z</time>
      </trkpt>
      <trkpt lat="48.05995" lon="-4.69555">
        <ele>51</ele>
        <time>2011-11-13T14:53:07Z</time>
      </trkpt>
      <trkpt lat="48.05996" lon="-4.69562">
        <ele>54</ele>
        <time>2011-11-13T14:53:12Z</time>
      </trkpt>
      <trkpt lat="48.06001" lon="-4.69566">
        <ele>58</ele>
        <time>2011-11-13T14:53:18Z</time>
      </trkpt>
      <trkpt lat="48.06004" lon="-4.69572">
        <ele>56</ele>
        <time>2011-11-13T14:53:24Z</time>
      </trkpt>
      <trkpt lat="48.06006" lon="-4.69581">
        <ele>56</ele>
        <time>2011-11-13T14:53:30Z</time>
      </trkpt>
      <trkpt lat="48.06009" lon="-4.69588">
        <ele>56</ele>
        <time>2011-11-13T14:53:35Z</time>
      </trkpt>
      <trkpt lat="48.06015" lon="-4.69609">
        <ele>50</ele>
        <time>2011-11-13T14:53:48Z</time>
      </trkpt>
      <trkpt lat="48.06016" lon="-4.69616">
        <ele>50</ele>
        <time>2011-11-13T14:53:52Z</time>
      </trkpt>
      <trkpt lat="48.06018" lon="-4.6963">
        <ele>48</ele>
        <time>2011-11-13T14:54:02Z</time>
      </trkpt>
      <trkpt lat="48.06019" lon="-4.69653">
        <ele>52</ele>
        <time>2011-11-13T14:54:14Z</time>
      </trkpt>
      <trkpt lat="48.06019" lon="-4.69659">
        <ele>52</ele>
        <time>2011-11-13T14:54:18Z</time>
      </trkpt>
      <trkpt lat="48.06019" lon="-4.69666">
        <ele>52</ele>
        <time>2011-11-13T14:54:23Z</time>
      </trkpt>
      <trkpt lat="48.06023" lon="-4.69681">
        <ele>55</ele>
        <time>2011-11-13T14:54:31Z</time>
      </trkpt>
      <trkpt lat="48.06026" lon="-4.6969">
        <ele>53</ele>
        <time>2011-11-13T14:54:36Z</time>
      </trkpt>
      <trkpt lat="48.06028" lon="-4.69696">
        <ele>52</ele>
        <time>2011-11-13T14:54:40Z</time>
      </trkpt>
      <trkpt lat="48.06032" lon="-4.69702">
        <ele>55</ele>
        <time>2011-11-13T14:54:45Z</time>
      </trkpt>
      <trkpt lat="48.06035" lon="-4.69707">
        <ele>53</ele>
        <time>2011-11-13T14:54:51Z</time>
      </trkpt>
      <trkpt lat="48.06039" lon="-4.69713">
        <ele>54</ele>
        <time>2011-11-13T14:54:56Z</time>
      </trkpt>
      <trkpt lat="48.06043" lon="-4.69708">
        <ele>52</ele>
        <time>2011-11-13T14:55:00Z</time>
      </trkpt>
      <trkpt lat="48.06046" lon="-4.69702">
        <ele>50</ele>
        <time>2011-11-13T14:55:05Z</time>
      </trkpt>
      <trkpt lat="48.0605" lon="-4.69704">
        <ele>49</ele>
        <time>2011-11-13T14:55:15Z</time>
      </trkpt>
      <trkpt lat="48.06052" lon="-4.69697">
        <ele>52</ele>
        <time>2011-11-13T14:55:20Z</time>
      </trkpt>
      <trkpt lat="48.06057" lon="-4.69695">
        <ele>49</ele>
        <time>2011-11-13T14:55:29Z</time>
      </trkpt>
      <trkpt lat="48.06062" lon="-4.69699">
        <ele>46</ele>
        <time>2011-11-13T14:55:53Z</time>
      </trkpt>
      <trkpt lat="48.06068" lon="-4.69711">
        <ele>44</ele>
        <time>2011-11-13T14:56:06Z</time>
      </trkpt>
      <trkpt lat="48.06072" lon="-4.69717">
        <ele>45</ele>
        <time>2011-11-13T14:56:10Z</time>
      </trkpt>
      <trkpt lat="48.06078" lon="-4.69728">
        <ele>37</ele>
        <time>2011-11-13T14:56:21Z</time>
      </trkpt>
      <trkpt lat="48.06081" lon="-4.69733">
        <ele>37</ele>
        <time>2011-11-13T14:56:27Z</time>
      </trkpt>
      <trkpt lat="48.06084" lon="-4.69739">
        <ele>36</ele>
        <time>2011-11-13T14:56:31Z</time>
      </trkpt>
      <trkpt lat="48.06084" lon="-4.69745">
        <ele>32</ele>
        <time>2011-11-13T14:57:16Z</time>
      </trkpt>
      <trkpt lat="48.06083" lon="-4.69753">
        <ele>33</ele>
        <time>2011-11-13T14:57:21Z</time>
      </trkpt>
      <trkpt lat="48.06082" lon="-4.69769">
        <ele>37</ele>
        <time>2011-11-13T14:57:34Z</time>
      </trkpt>
      <trkpt lat="48.06083" lon="-4.69776">
        <ele>37</ele>
        <time>2011-11-13T14:57:39Z</time>
      </trkpt>
      <trkpt lat="48.06086" lon="-4.69783">
        <ele>41</ele>
        <time>2011-11-13T14:57:44Z</time>
      </trkpt>
      <trkpt lat="48.0609" lon="-4.69796">
        <ele>38</ele>
        <time>2011-11-13T14:57:52Z</time>
      </trkpt>
      <trkpt lat="48.06093" lon="-4.69801">
        <ele>36</ele>
        <time>2011-11-13T14:57:56Z</time>
      </trkpt>
      <trkpt lat="48.061" lon="-4.6981">
        <ele>43</ele>
        <time>2011-11-13T14:58:20Z</time>
      </trkpt>
      <trkpt lat="48.06104" lon="-4.69813">
        <ele>40</ele>
        <time>2011-11-13T14:58:25Z</time>
      </trkpt>
      <trkpt lat="48.06108" lon="-4.69817">
        <ele>42</ele>
        <time>2011-11-13T14:58:31Z</time>
      </trkpt>
      <trkpt lat="48.06108" lon="-4.69824">
        <ele>45</ele>
        <time>2011-11-13T14:58:36Z</time>
      </trkpt>
      <trkpt lat="48.06112" lon="-4.6983">
        <ele>45</ele>
        <time>2011-11-13T14:58:42Z</time>
      </trkpt>
      <trkpt lat="48.06114" lon="-4.69838">
        <ele>48</ele>
        <time>2011-11-13T14:58:47Z</time>
      </trkpt>
      <trkpt lat="48.06114" lon="-4.69851">
        <ele>40</ele>
        <time>2011-11-13T14:58:56Z</time>
      </trkpt>
      <trkpt lat="48.06113" lon="-4.69858">
        <ele>42</ele>
        <time>2011-11-13T14:59:02Z</time>
      </trkpt>
      <trkpt lat="48.06118" lon="-4.69861">
        <ele>42</ele>
        <time>2011-11-13T14:59:08Z</time>
      </trkpt>
      <trkpt lat="48.06122" lon="-4.69866">
        <ele>49</ele>
        <time>2011-11-13T14:59:12Z</time>
      </trkpt>
      <trkpt lat="48.0613" lon="-4.69875">
        <ele>43</ele>
        <time>2011-11-13T14:59:22Z</time>
      </trkpt>
      <trkpt lat="48.06135" lon="-4.69876">
        <ele>45</ele>
        <time>2011-11-13T14:59:30Z</time>
      </trkpt>
      <trkpt lat="48.06139" lon="-4.69873">
        <ele>45</ele>
        <time>2011-11-13T14:59:35Z</time>
      </trkpt>
      <trkpt lat="48.06144" lon="-4.69872">
        <ele>50</ele>
        <time>2011-11-13T14:59:40Z</time>
      </trkpt>
      <trkpt lat="48.06149" lon="-4.69871">
        <ele>49</ele>
        <time>2011-11-13T14:59:44Z</time>
      </trkpt>
      <trkpt lat="48.06154" lon="-4.69869">
        <ele>50</ele>
        <time>2011-11-13T14:59:51Z</time>
      </trkpt>
      <trkpt lat="48.06159" lon="-4.69871">
        <ele>51</ele>
        <time>2011-11-13T14:59:57Z</time>
      </trkpt>
      <trkpt lat="48.06163" lon="-4.69875">
        <ele>52</ele>
        <time>2011-11-13T15:00:01Z</time>
      </trkpt>
      <trkpt lat="48.06172" lon="-4.69894">
        <ele>50</ele>
        <time>2011-11-13T15:00:14Z</time>
      </trkpt>
      <trkpt lat="48.06174" lon="-4.69901">
        <ele>47</ele>
        <time>2011-11-13T15:00:19Z</time>
      </trkpt>
      <trkpt lat="48.06175" lon="-4.69909">
        <ele>51</ele>
        <time>2011-11-13T15:00:23Z</time>
      </trkpt>
      <trkpt lat="48.06174" lon="-4.69915">
        <ele>49</ele>
        <time>2011-11-13T15:00:27Z</time>
      </trkpt>
      <trkpt lat="48.06166" lon="-4.69933">
        <ele>49</ele>
        <time>2011-11-13T15:00:43Z</time>
      </trkpt>
      <trkpt lat="48.06163" lon="-4.69939">
        <ele>48</ele>
        <time>2011-11-13T15:00:49Z</time>
      </trkpt>
      <trkpt lat="48.06161" lon="-4.69946">
        <ele>49</ele>
        <time>2011-11-13T15:00:54Z</time>
      </trkpt>
      <trkpt lat="48.0616" lon="-4.69952">
        <ele>48</ele>
        <time>2011-11-13T15:00:58Z</time>
      </trkpt>
      <trkpt lat="48.06161" lon="-4.69966">
        <ele>52</ele>
        <time>2011-11-13T15:01:05Z</time>
      </trkpt>
      <trkpt lat="48.06162" lon="-4.69973">
        <ele>51</ele>
        <time>2011-11-13T15:01:09Z</time>
      </trkpt>
      <trkpt lat="48.06165" lon="-4.69978">
        <ele>51</ele>
        <time>2011-11-13T15:01:13Z</time>
      </trkpt>
      <trkpt lat="48.06168" lon="-4.69984">
        <ele>51</ele>
        <time>2011-11-13T15:01:18Z</time>
      </trkpt>
      <trkpt lat="48.06171" lon="-4.69989">
        <ele>50</ele>
        <time>2011-11-13T15:01:23Z</time>
      </trkpt>
      <trkpt lat="48.06173" lon="-4.69995">
        <ele>53</ele>
        <time>2011-11-13T15:01:27Z</time>
      </trkpt>
      <trkpt lat="48.06174" lon="-4.70003">
        <ele>51</ele>
        <time>2011-11-13T15:01:31Z</time>
      </trkpt>
      <trkpt lat="48.06175" lon="-4.70009">
        <ele>54</ele>
        <time>2011-11-13T15:01:34Z</time>
      </trkpt>
      <trkpt lat="48.06173" lon="-4.70016">
        <ele>52</ele>
        <time>2011-11-13T15:01:38Z</time>
      </trkpt>
      <trkpt lat="48.06171" lon="-4.70022">
        <ele>52</ele>
        <time>2011-11-13T15:01:42Z</time>
      </trkpt>
      <trkpt lat="48.06168" lon="-4.70027">
        <ele>49</ele>
        <time>2011-11-13T15:01:46Z</time>
      </trkpt>
      <trkpt lat="48.06165" lon="-4.70033">
        <ele>50</ele>
        <time>2011-11-13T15:01:52Z</time>
      </trkpt>
      <trkpt lat="48.06164" lon="-4.70041">
        <ele>49</ele>
        <time>2011-11-13T15:01:56Z</time>
      </trkpt>
      <trkpt lat="48.06162" lon="-4.70049">
        <ele>53</ele>
        <time>2011-11-13T15:02:01Z</time>
      </trkpt>
      <trkpt lat="48.06159" lon="-4.70056">
        <ele>51</ele>
        <time>2011-11-13T15:02:07Z</time>
      </trkpt>
      <trkpt lat="48.06156" lon="-4.70062">
        <ele>54</ele>
        <time>2011-11-13T15:02:12Z</time>
      </trkpt>
      <trkpt lat="48.06154" lon="-4.70069">
        <ele>52</ele>
        <time>2011-11-13T15:02:16Z</time>
      </trkpt>
      <trkpt lat="48.06153" lon="-4.70077">
        <ele>54</ele>
        <time>2011-11-13T15:02:20Z</time>
      </trkpt>
      <trkpt lat="48.06149" lon="-4.70092">
        <ele>55</ele>
        <time>2011-11-13T15:02:29Z</time>
      </trkpt>
      <trkpt lat="48.06147" lon="-4.70099">
        <ele>57</ele>
        <time>2011-11-13T15:02:34Z</time>
      </trkpt>
      <trkpt lat="48.06145" lon="-4.70105">
        <ele>57</ele>
        <time>2011-11-13T15:02:39Z</time>
      </trkpt>
      <trkpt lat="48.06142" lon="-4.70113">
        <ele>55</ele>
        <time>2011-11-13T15:02:44Z</time>
      </trkpt>
      <trkpt lat="48.06139" lon="-4.7012">
        <ele>58</ele>
        <time>2011-11-13T15:02:49Z</time>
      </trkpt>
      <trkpt lat="48.06137" lon="-4.70134">
        <ele>57</ele>
        <time>2011-11-13T15:02:58Z</time>
      </trkpt>
      <trkpt lat="48.06136" lon="-4.70154">
        <ele>60</ele>
        <time>2011-11-13T15:03:12Z</time>
      </trkpt>
      <trkpt lat="48.06136" lon="-4.70161">
        <ele>58</ele>
        <time>2011-11-13T15:03:18Z</time>
      </trkpt>
      <trkpt lat="48.06137" lon="-4.70168">
        <ele>61</ele>
        <time>2011-11-13T15:03:23Z</time>
      </trkpt>
      <trkpt lat="48.0614" lon="-4.70174">
        <ele>59</ele>
        <time>2011-11-13T15:03:28Z</time>
      </trkpt>
      <trkpt lat="48.0614" lon="-4.70181">
        <ele>59</ele>
        <time>2011-11-13T15:03:35Z</time>
      </trkpt>
      <trkpt lat="48.06134" lon="-4.70193">
        <ele>63</ele>
        <time>2011-11-13T15:03:45Z</time>
      </trkpt>
      <trkpt lat="48.06133" lon="-4.702">
        <ele>62</ele>
        <time>2011-11-13T15:03:51Z</time>
      </trkpt>
      <trkpt lat="48.0613" lon="-4.70206">
        <ele>63</ele>
        <time>2011-11-13T15:03:56Z</time>
      </trkpt>
      <trkpt lat="48.06126" lon="-4.7021">
        <ele>63</ele>
        <time>2011-11-13T15:04:02Z</time>
      </trkpt>
      <trkpt lat="48.06125" lon="-4.70217">
        <ele>62</ele>
        <time>2011-11-13T15:04:07Z</time>
      </trkpt>
      <trkpt lat="48.06127" lon="-4.70238">
        <ele>56</ele>
        <time>2011-11-13T15:04:21Z</time>
      </trkpt>
      <trkpt lat="48.06132" lon="-4.70253">
        <ele>62</ele>
        <time>2011-11-13T15:04:30Z</time>
      </trkpt>
      <trkpt lat="48.06131" lon="-4.70259">
        <ele>63</ele>
        <time>2011-11-13T15:04:35Z</time>
      </trkpt>
      <trkpt lat="48.06128" lon="-4.70265">
        <ele>63</ele>
        <time>2011-11-13T15:04:40Z</time>
      </trkpt>
      <trkpt lat="48.06129" lon="-4.70288">
        <ele>57</ele>
        <time>2011-11-13T15:04:56Z</time>
      </trkpt>
      <trkpt lat="48.06135" lon="-4.70299">
        <ele>51</ele>
        <time>2011-11-13T15:05:07Z</time>
      </trkpt>
      <trkpt lat="48.0614" lon="-4.70312">
        <ele>51</ele>
        <time>2011-11-13T15:05:17Z</time>
      </trkpt>
      <trkpt lat="48.06147" lon="-4.70329">
        <ele>54</ele>
        <time>2011-11-13T15:05:28Z</time>
      </trkpt>
      <trkpt lat="48.06149" lon="-4.70343">
        <ele>48</ele>
        <time>2011-11-13T15:05:35Z</time>
      </trkpt>
      <trkpt lat="48.06149" lon="-4.7035">
        <ele>50</ele>
        <time>2011-11-13T15:05:38Z</time>
      </trkpt>
      <trkpt lat="48.0615" lon="-4.70358">
        <ele>50</ele>
        <time>2011-11-13T15:05:44Z</time>
      </trkpt>
      <trkpt lat="48.06154" lon="-4.70364">
        <ele>52</ele>
        <time>2011-11-13T15:05:49Z</time>
      </trkpt>
      <trkpt lat="48.06158" lon="-4.70376">
        <ele>47</ele>
        <time>2011-11-13T15:05:56Z</time>
      </trkpt>
      <trkpt lat="48.06163" lon="-4.70389">
        <ele>56</ele>
        <time>2011-11-13T15:06:04Z</time>
      </trkpt>
      <trkpt lat="48.06164" lon="-4.70397">
        <ele>56</ele>
        <time>2011-11-13T15:06:08Z</time>
      </trkpt>
      <trkpt lat="48.06166" lon="-4.70404">
        <ele>54</ele>
        <time>2011-11-13T15:06:12Z</time>
      </trkpt>
      <trkpt lat="48.06168" lon="-4.70411">
        <ele>54</ele>
        <time>2011-11-13T15:06:16Z</time>
      </trkpt>
      <trkpt lat="48.06173" lon="-4.70428">
        <ele>60</ele>
        <time>2011-11-13T15:06:33Z</time>
      </trkpt>
      <trkpt lat="48.06176" lon="-4.70435">
        <ele>58</ele>
        <time>2011-11-13T15:06:40Z</time>
      </trkpt>
      <trkpt lat="48.06179" lon="-4.70441">
        <ele>58</ele>
        <time>2011-11-13T15:06:44Z</time>
      </trkpt>
      <trkpt lat="48.06183" lon="-4.70445">
        <ele>58</ele>
        <time>2011-11-13T15:06:48Z</time>
      </trkpt>
      <trkpt lat="48.06186" lon="-4.7045">
        <ele>58</ele>
        <time>2011-11-13T15:06:52Z</time>
      </trkpt>
      <trkpt lat="48.0619" lon="-4.70464">
        <ele>56</ele>
        <time>2011-11-13T15:07:01Z</time>
      </trkpt>
      <trkpt lat="48.06193" lon="-4.7047">
        <ele>58</ele>
        <time>2011-11-13T15:07:05Z</time>
      </trkpt>
      <trkpt lat="48.06198" lon="-4.70473">
        <ele>57</ele>
        <time>2011-11-13T15:07:10Z</time>
      </trkpt>
      <trkpt lat="48.062" lon="-4.70478">
        <ele>54</ele>
        <time>2011-11-13T15:07:14Z</time>
      </trkpt>
      <trkpt lat="48.06202" lon="-4.70485">
        <ele>56</ele>
        <time>2011-11-13T15:07:18Z</time>
      </trkpt>
      <trkpt lat="48.06203" lon="-4.70492">
        <ele>56</ele>
        <time>2011-11-13T15:07:22Z</time>
      </trkpt>
      <trkpt lat="48.06205" lon="-4.70506">
        <ele>52</ele>
        <time>2011-11-13T15:07:33Z</time>
      </trkpt>
      <trkpt lat="48.06206" lon="-4.70513">
        <ele>54</ele>
        <time>2011-11-13T15:07:38Z</time>
      </trkpt>
      <trkpt lat="48.06207" lon="-4.70519">
        <ele>53</ele>
        <time>2011-11-13T15:07:42Z</time>
      </trkpt>
      <trkpt lat="48.06209" lon="-4.70526">
        <ele>55</ele>
        <time>2011-11-13T15:07:46Z</time>
      </trkpt>
      <trkpt lat="48.06212" lon="-4.70532">
        <ele>56</ele>
        <time>2011-11-13T15:07:50Z</time>
      </trkpt>
      <trkpt lat="48.06215" lon="-4.70538">
        <ele>53</ele>
        <time>2011-11-13T15:07:54Z</time>
      </trkpt>
      <trkpt lat="48.06218" lon="-4.70545">
        <ele>55</ele>
        <time>2011-11-13T15:07:58Z</time>
      </trkpt>
      <trkpt lat="48.0622" lon="-4.70551">
        <ele>54</ele>
        <time>2011-11-13T15:08:02Z</time>
      </trkpt>
      <trkpt lat="48.06222" lon="-4.70558">
        <ele>54</ele>
        <time>2011-11-13T15:08:07Z</time>
      </trkpt>
      <trkpt lat="48.06225" lon="-4.70564">
        <ele>57</ele>
        <time>2011-11-13T15:08:12Z</time>
      </trkpt>
      <trkpt lat="48.06226" lon="-4.70571">
        <ele>55</ele>
        <time>2011-11-13T15:08:16Z</time>
      </trkpt>
      <trkpt lat="48.06228" lon="-4.70578">
        <ele>56</ele>
        <time>2011-11-13T15:08:20Z</time>
      </trkpt>
      <trkpt lat="48.06228" lon="-4.70586">
        <ele>52</ele>
        <time>2011-11-13T15:08:25Z</time>
      </trkpt>
      <trkpt lat="48.0623" lon="-4.70593">
        <ele>51</ele>
        <time>2011-11-13T15:08:29Z</time>
      </trkpt>
      <trkpt lat="48.06233" lon="-4.70598">
        <ele>55</ele>
        <time>2011-11-13T15:08:33Z</time>
      </trkpt>
      <trkpt lat="48.06236" lon="-4.70604">
        <ele>55</ele>
        <time>2011-11-13T15:08:37Z</time>
      </trkpt>
      <trkpt lat="48.06241" lon="-4.70608">
        <ele>53</ele>
        <time>2011-11-13T15:08:45Z</time>
      </trkpt>
      <trkpt lat="48.06237" lon="-4.70604">
        <ele>57</ele>
        <time>2011-11-13T15:09:03Z</time>
      </trkpt>
      <trkpt lat="48.06235" lon="-4.70598">
        <ele>56</ele>
        <time>2011-11-13T15:09:07Z</time>
      </trkpt>
      <trkpt lat="48.06232" lon="-4.70605">
        <ele>55</ele>
        <time>2011-11-13T15:09:14Z</time>
      </trkpt>
      <trkpt lat="48.06236" lon="-4.70633">
        <ele>55</ele>
        <time>2011-11-13T15:09:29Z</time>
      </trkpt>
      <trkpt lat="48.06236" lon="-4.7064">
        <ele>56</ele>
        <time>2011-11-13T15:09:34Z</time>
      </trkpt>
      <trkpt lat="48.06239" lon="-4.70655">
        <ele>55</ele>
        <time>2011-11-13T15:09:42Z</time>
      </trkpt>
      <trkpt lat="48.06239" lon="-4.70662">
        <ele>50</ele>
        <time>2011-11-13T15:09:46Z</time>
      </trkpt>
      <trkpt lat="48.0624" lon="-4.70668">
        <ele>53</ele>
        <time>2011-11-13T15:09:50Z</time>
      </trkpt>
      <trkpt lat="48.06242" lon="-4.70675">
        <ele>53</ele>
        <time>2011-11-13T15:09:54Z</time>
      </trkpt>
      <trkpt lat="48.06242" lon="-4.70683">
        <ele>57</ele>
        <time>2011-11-13T15:09:58Z</time>
      </trkpt>
      <trkpt lat="48.06243" lon="-4.70691">
        <ele>53</ele>
        <time>2011-11-13T15:10:02Z</time>
      </trkpt>
      <trkpt lat="48.06244" lon="-4.70698">
        <ele>52</ele>
        <time>2011-11-13T15:10:06Z</time>
      </trkpt>
      <trkpt lat="48.06246" lon="-4.70706">
        <ele>53</ele>
        <time>2011-11-13T15:10:11Z</time>
      </trkpt>
      <trkpt lat="48.06247" lon="-4.70714">
        <ele>53</ele>
        <time>2011-11-13T15:10:15Z</time>
      </trkpt>
      <trkpt lat="48.06248" lon="-4.70721">
        <ele>49</ele>
        <time>2011-11-13T15:10:21Z</time>
      </trkpt>
      <trkpt lat="48.06251" lon="-4.70735">
        <ele>56</ele>
        <time>2011-11-13T15:10:32Z</time>
      </trkpt>
      <trkpt lat="48.06251" lon="-4.70741">
        <ele>55</ele>
        <time>2011-11-13T15:10:36Z</time>
      </trkpt>
      <trkpt lat="48.06251" lon="-4.70748">
        <ele>55</ele>
        <time>2011-11-13T15:10:40Z</time>
      </trkpt>
      <trkpt lat="48.06251" lon="-4.70763">
        <ele>48</ele>
        <time>2011-11-13T15:10:51Z</time>
      </trkpt>
      <trkpt lat="48.06252" lon="-4.7077">
        <ele>50</ele>
        <time>2011-11-13T15:10:56Z</time>
      </trkpt>
      <trkpt lat="48.06252" lon="-4.70784">
        <ele>48</ele>
        <time>2011-11-13T15:11:04Z</time>
      </trkpt>
      <trkpt lat="48.06252" lon="-4.70792">
        <ele>53</ele>
        <time>2011-11-13T15:11:08Z</time>
      </trkpt>
      <trkpt lat="48.06252" lon="-4.70806">
        <ele>48</ele>
        <time>2011-11-13T15:11:16Z</time>
      </trkpt>
      <trkpt lat="48.06252" lon="-4.70813">
        <ele>49</ele>
        <time>2011-11-13T15:11:20Z</time>
      </trkpt>
      <trkpt lat="48.06253" lon="-4.70823">
        <ele>45</ele>
        <time>2011-11-13T15:11:26Z</time>
      </trkpt>
      <trkpt lat="48.06253" lon="-4.70831">
        <ele>47</ele>
        <time>2011-11-13T15:11:31Z</time>
      </trkpt>
      <trkpt lat="48.06253" lon="-4.70838">
        <ele>47</ele>
        <time>2011-11-13T15:11:36Z</time>
      </trkpt>
      <trkpt lat="48.06251" lon="-4.70845">
        <ele>50</ele>
        <time>2011-11-13T15:11:42Z</time>
      </trkpt>
      <trkpt lat="48.06248" lon="-4.70859">
        <ele>47</ele>
        <time>2011-11-13T15:11:49Z</time>
      </trkpt>
      <trkpt lat="48.06247" lon="-4.70866">
        <ele>47</ele>
        <time>2011-11-13T15:11:53Z</time>
      </trkpt>
      <trkpt lat="48.06246" lon="-4.70873">
        <ele>48</ele>
        <time>2011-11-13T15:11:57Z</time>
      </trkpt>
      <trkpt lat="48.06246" lon="-4.70889">
        <ele>44</ele>
        <time>2011-11-13T15:12:06Z</time>
      </trkpt>
      <trkpt lat="48.06247" lon="-4.70896">
        <ele>44</ele>
        <time>2011-11-13T15:12:11Z</time>
      </trkpt>
      <trkpt lat="48.06248" lon="-4.70904">
        <ele>41</ele>
        <time>2011-11-13T15:12:15Z</time>
      </trkpt>
      <trkpt lat="48.06249" lon="-4.70911">
        <ele>43</ele>
        <time>2011-11-13T15:12:19Z</time>
      </trkpt>
      <trkpt lat="48.06249" lon="-4.70918">
        <ele>42</ele>
        <time>2011-11-13T15:12:23Z</time>
      </trkpt>
      <trkpt lat="48.06248" lon="-4.70926">
        <ele>46</ele>
        <time>2011-11-13T15:12:27Z</time>
      </trkpt>
      <trkpt lat="48.0625" lon="-4.70949">
        <ele>42</ele>
        <time>2011-11-13T15:12:40Z</time>
      </trkpt>
      <trkpt lat="48.06255" lon="-4.70961">
        <ele>48</ele>
        <time>2011-11-13T15:12:48Z</time>
      </trkpt>
      <trkpt lat="48.06257" lon="-4.70968">
        <ele>45</ele>
        <time>2011-11-13T15:12:52Z</time>
      </trkpt>
      <trkpt lat="48.06259" lon="-4.70975">
        <ele>44</ele>
        <time>2011-11-13T15:12:56Z</time>
      </trkpt>
      <trkpt lat="48.06262" lon="-4.7098">
        <ele>52</ele>
        <time>2011-11-13T15:13:00Z</time>
      </trkpt>
      <trkpt lat="48.06265" lon="-4.70987">
        <ele>50</ele>
        <time>2011-11-13T15:13:04Z</time>
      </trkpt>
      <trkpt lat="48.06269" lon="-4.70993">
        <ele>51</ele>
        <time>2011-11-13T15:13:09Z</time>
      </trkpt>
      <trkpt lat="48.06272" lon="-4.70998">
        <ele>46</ele>
        <time>2011-11-13T15:13:13Z</time>
      </trkpt>
      <trkpt lat="48.06275" lon="-4.71005">
        <ele>47</ele>
        <time>2011-11-13T15:13:17Z</time>
      </trkpt>
      <trkpt lat="48.06277" lon="-4.71012">
        <ele>46</ele>
        <time>2011-11-13T15:13:21Z</time>
      </trkpt>
      <trkpt lat="48.06283" lon="-4.71025">
        <ele>49</ele>
        <time>2011-11-13T15:13:28Z</time>
      </trkpt>
      <trkpt lat="48.06289" lon="-4.71036">
        <ele>45</ele>
        <time>2011-11-13T15:13:36Z</time>
      </trkpt>
      <trkpt lat="48.06292" lon="-4.71041">
        <ele>48</ele>
        <time>2011-11-13T15:13:39Z</time>
      </trkpt>
      <trkpt lat="48.06296" lon="-4.71046">
        <ele>47</ele>
        <time>2011-11-13T15:13:43Z</time>
      </trkpt>
      <trkpt lat="48.06303" lon="-4.71052">
        <ele>50</ele>
        <time>2011-11-13T15:13:49Z</time>
      </trkpt>
      <trkpt lat="48.06306" lon="-4.71057">
        <ele>47</ele>
        <time>2011-11-13T15:13:54Z</time>
      </trkpt>
      <trkpt lat="48.0631" lon="-4.71062">
        <ele>47</ele>
        <time>2011-11-13T15:13:59Z</time>
      </trkpt>
      <trkpt lat="48.06313" lon="-4.71067">
        <ele>49</ele>
        <time>2011-11-13T15:14:03Z</time>
      </trkpt>
      <trkpt lat="48.06318" lon="-4.71071">
        <ele>44</ele>
        <time>2011-11-13T15:14:08Z</time>
      </trkpt>
      <trkpt lat="48.06327" lon="-4.71078">
        <ele>50</ele>
        <time>2011-11-13T15:14:16Z</time>
      </trkpt>
      <trkpt lat="48.06331" lon="-4.71082">
        <ele>50</ele>
        <time>2011-11-13T15:14:21Z</time>
      </trkpt>
      <trkpt lat="48.06335" lon="-4.71086">
        <ele>48</ele>
        <time>2011-11-13T15:14:25Z</time>
      </trkpt>
      <trkpt lat="48.06342" lon="-4.71098">
        <ele>52</ele>
        <time>2011-11-13T15:14:32Z</time>
      </trkpt>
      <trkpt lat="48.0635" lon="-4.71113">
        <ele>50</ele>
        <time>2011-11-13T15:14:44Z</time>
      </trkpt>
      <trkpt lat="48.06368" lon="-4.7113">
        <ele>54</ele>
        <time>2011-11-13T15:15:01Z</time>
      </trkpt>
      <trkpt lat="48.06377" lon="-4.71146">
        <ele>48</ele>
        <time>2011-11-13T15:15:14Z</time>
      </trkpt>
      <trkpt lat="48.06379" lon="-4.71152">
        <ele>48</ele>
        <time>2011-11-13T15:15:18Z</time>
      </trkpt>
      <trkpt lat="48.06382" lon="-4.71158">
        <ele>49</ele>
        <time>2011-11-13T15:15:23Z</time>
      </trkpt>
      <trkpt lat="48.06387" lon="-4.71172">
        <ele>54</ele>
        <time>2011-11-13T15:15:31Z</time>
      </trkpt>
      <trkpt lat="48.06391" lon="-4.71177">
        <ele>52</ele>
        <time>2011-11-13T15:15:35Z</time>
      </trkpt>
      <trkpt lat="48.06394" lon="-4.71178">
        <ele>48</ele>
        <time>2011-11-13T15:15:53Z</time>
      </trkpt>
      <trkpt lat="48.06391" lon="-4.71185">
        <ele>52</ele>
        <time>2011-11-13T15:15:58Z</time>
      </trkpt>
      <trkpt lat="48.06387" lon="-4.71192">
        <ele>53</ele>
        <time>2011-11-13T15:16:02Z</time>
      </trkpt>
      <trkpt lat="48.06385" lon="-4.71197">
        <ele>50</ele>
        <time>2011-11-13T15:16:05Z</time>
      </trkpt>
      <trkpt lat="48.06379" lon="-4.71211">
        <ele>54</ele>
        <time>2011-11-13T15:16:13Z</time>
      </trkpt>
      <trkpt lat="48.06377" lon="-4.71225">
        <ele>47</ele>
        <time>2011-11-13T15:16:20Z</time>
      </trkpt>
      <trkpt lat="48.06374" lon="-4.71239">
        <ele>52</ele>
        <time>2011-11-13T15:16:28Z</time>
      </trkpt>
      <trkpt lat="48.06373" lon="-4.71247">
        <ele>49</ele>
        <time>2011-11-13T15:16:32Z</time>
      </trkpt>
      <trkpt lat="48.06371" lon="-4.71253">
        <ele>48</ele>
        <time>2011-11-13T15:16:35Z</time>
      </trkpt>
      <trkpt lat="48.06369" lon="-4.71259">
        <ele>48</ele>
        <time>2011-11-13T15:16:39Z</time>
      </trkpt>
      <trkpt lat="48.06368" lon="-4.71266">
        <ele>50</ele>
        <time>2011-11-13T15:16:43Z</time>
      </trkpt>
      <trkpt lat="48.06367" lon="-4.71273">
        <ele>50</ele>
        <time>2011-11-13T15:16:47Z</time>
      </trkpt>
      <trkpt lat="48.06365" lon="-4.71287">
        <ele>46</ele>
        <time>2011-11-13T15:16:54Z</time>
      </trkpt>
      <trkpt lat="48.06364" lon="-4.71293">
        <ele>46</ele>
        <time>2011-11-13T15:16:57Z</time>
      </trkpt>
      <trkpt lat="48.06364" lon="-4.713">
        <ele>45</ele>
        <time>2011-11-13T15:17:00Z</time>
      </trkpt>
      <trkpt lat="48.06362" lon="-4.71315">
        <ele>47</ele>
        <time>2011-11-13T15:17:07Z</time>
      </trkpt>
      <trkpt lat="48.06357" lon="-4.71337">
        <ele>44</ele>
        <time>2011-11-13T15:17:19Z</time>
      </trkpt>
      <trkpt lat="48.06356" lon="-4.71345">
        <ele>46</ele>
        <time>2011-11-13T15:17:23Z</time>
      </trkpt>
      <trkpt lat="48.06351" lon="-4.71366">
        <ele>44</ele>
        <time>2011-11-13T15:17:35Z</time>
      </trkpt>
      <trkpt lat="48.06349" lon="-4.71373">
        <ele>48</ele>
        <time>2011-11-13T15:17:39Z</time>
      </trkpt>
      <trkpt lat="48.06347" lon="-4.7138">
        <ele>47</ele>
        <time>2011-11-13T15:17:43Z</time>
      </trkpt>
      <trkpt lat="48.06345" lon="-4.71387">
        <ele>50</ele>
        <time>2011-11-13T15:17:47Z</time>
      </trkpt>
      <trkpt lat="48.06342" lon="-4.71394">
        <ele>48</ele>
        <time>2011-11-13T15:17:51Z</time>
      </trkpt>
      <trkpt lat="48.0634" lon="-4.714">
        <ele>49</ele>
        <time>2011-11-13T15:17:55Z</time>
      </trkpt>
      <trkpt lat="48.06335" lon="-4.71411">
        <ele>48</ele>
        <time>2011-11-13T15:18:02Z</time>
      </trkpt>
      <trkpt lat="48.06332" lon="-4.71418">
        <ele>52</ele>
        <time>2011-11-13T15:18:06Z</time>
      </trkpt>
      <trkpt lat="48.0633" lon="-4.71425">
        <ele>50</ele>
        <time>2011-11-13T15:18:10Z</time>
      </trkpt>
      <trkpt lat="48.06324" lon="-4.71441">
        <ele>48</ele>
        <time>2011-11-13T15:18:20Z</time>
      </trkpt>
      <trkpt lat="48.06321" lon="-4.71446">
        <ele>49</ele>
        <time>2011-11-13T15:18:24Z</time>
      </trkpt>
      <trkpt lat="48.06317" lon="-4.71451">
        <ele>45</ele>
        <time>2011-11-13T15:18:28Z</time>
      </trkpt>
      <trkpt lat="48.06312" lon="-4.71452">
        <ele>42</ele>
        <time>2011-11-13T15:18:38Z</time>
      </trkpt>
      <trkpt lat="48.0631" lon="-4.71445">
        <ele>47</ele>
        <time>2011-11-13T15:18:45Z</time>
      </trkpt>
      <trkpt lat="48.06304" lon="-4.71434">
        <ele>51</ele>
        <time>2011-11-13T15:18:54Z</time>
      </trkpt>
      <trkpt lat="48.06299" lon="-4.71431">
        <ele>48</ele>
        <time>2011-11-13T15:18:59Z</time>
      </trkpt>
      <trkpt lat="48.06289" lon="-4.71425">
        <ele>51</ele>
        <time>2011-11-13T15:19:09Z</time>
      </trkpt>
      <trkpt lat="48.06284" lon="-4.71422">
        <ele>50</ele>
        <time>2011-11-13T15:19:13Z</time>
      </trkpt>
      <trkpt lat="48.0628" lon="-4.71419">
        <ele>51</ele>
        <time>2011-11-13T15:19:17Z</time>
      </trkpt>
      <trkpt lat="48.06271" lon="-4.71413">
        <ele>47</ele>
        <time>2011-11-13T15:19:24Z</time>
      </trkpt>
      <trkpt lat="48.06267" lon="-4.71412">
        <ele>48</ele>
        <time>2011-11-13T15:19:29Z</time>
      </trkpt>
      <trkpt lat="48.06264" lon="-4.71413">
        <ele>46</ele>
        <time>2011-11-13T15:19:39Z</time>
      </trkpt>
      <trkpt lat="48.0626" lon="-4.71406">
        <ele>52</ele>
        <time>2011-11-13T15:19:48Z</time>
      </trkpt>
      <trkpt lat="48.06255" lon="-4.71402">
        <ele>51</ele>
        <time>2011-11-13T15:19:52Z</time>
      </trkpt>
      <trkpt lat="48.06252" lon="-4.71397">
        <ele>48</ele>
        <time>2011-11-13T15:19:56Z</time>
      </trkpt>
      <trkpt lat="48.06247" lon="-4.71393">
        <ele>52</ele>
        <time>2011-11-13T15:20:02Z</time>
      </trkpt>
      <trkpt lat="48.06239" lon="-4.71384">
        <ele>53</ele>
        <time>2011-11-13T15:20:10Z</time>
      </trkpt>
      <trkpt lat="48.06231" lon="-4.71376">
        <ele>47</ele>
        <time>2011-11-13T15:20:18Z</time>
      </trkpt>
      <trkpt lat="48.06226" lon="-4.71372">
        <ele>47</ele>
        <time>2011-11-13T15:20:22Z</time>
      </trkpt>
      <trkpt lat="48.06218" lon="-4.71363">
        <ele>51</ele>
        <time>2011-11-13T15:20:31Z</time>
      </trkpt>
      <trkpt lat="48.06214" lon="-4.71358">
        <ele>50</ele>
        <time>2011-11-13T15:20:35Z</time>
      </trkpt>
      <trkpt lat="48.06211" lon="-4.71353">
        <ele>49</ele>
        <time>2011-11-13T15:20:39Z</time>
      </trkpt>
      <trkpt lat="48.06205" lon="-4.7134">
        <ele>46</ele>
        <time>2011-11-13T15:20:47Z</time>
      </trkpt>
      <trkpt lat="48.06202" lon="-4.71332">
        <ele>45</ele>
        <time>2011-11-13T15:20:52Z</time>
      </trkpt>
      <trkpt lat="48.06196" lon="-4.7132">
        <ele>50</ele>
        <time>2011-11-13T15:21:02Z</time>
      </trkpt>
      <trkpt lat="48.06192" lon="-4.71315">
        <ele>45</ele>
        <time>2011-11-13T15:21:06Z</time>
      </trkpt>
      <trkpt lat="48.06189" lon="-4.71311">
        <ele>46</ele>
        <time>2011-11-13T15:21:11Z</time>
      </trkpt>
      <trkpt lat="48.06185" lon="-4.71306">
        <ele>43</ele>
        <time>2011-11-13T15:21:15Z</time>
      </trkpt>
      <trkpt lat="48.06178" lon="-4.71294">
        <ele>50</ele>
        <time>2011-11-13T15:21:25Z</time>
      </trkpt>
      <trkpt lat="48.06175" lon="-4.7129">
        <ele>48</ele>
        <time>2011-11-13T15:21:29Z</time>
      </trkpt>
      <trkpt lat="48.06171" lon="-4.71285">
        <ele>52</ele>
        <time>2011-11-13T15:21:34Z</time>
      </trkpt>
      <trkpt lat="48.06162" lon="-4.71278">
        <ele>46</ele>
        <time>2011-11-13T15:21:42Z</time>
      </trkpt>
      <trkpt lat="48.06153" lon="-4.7127">
        <ele>51</ele>
        <time>2011-11-13T15:21:51Z</time>
      </trkpt>
      <trkpt lat="48.06135" lon="-4.71258">
        <ele>39</ele>
        <time>2011-11-13T15:22:07Z</time>
      </trkpt>
      <trkpt lat="48.06131" lon="-4.71253">
        <ele>43</ele>
        <time>2011-11-13T15:22:11Z</time>
      </trkpt>
      <trkpt lat="48.06126" lon="-4.71249">
        <ele>43</ele>
        <time>2011-11-13T15:22:16Z</time>
      </trkpt>
      <trkpt lat="48.06121" lon="-4.71246">
        <ele>42</ele>
        <time>2011-11-13T15:22:20Z</time>
      </trkpt>
      <trkpt lat="48.06111" lon="-4.71238">
        <ele>47</ele>
        <time>2011-11-13T15:22:30Z</time>
      </trkpt>
      <trkpt lat="48.06096" lon="-4.71235">
        <ele>41</ele>
        <time>2011-11-13T15:22:43Z</time>
      </trkpt>
      <trkpt lat="48.06091" lon="-4.71232">
        <ele>42</ele>
        <time>2011-11-13T15:22:48Z</time>
      </trkpt>
      <trkpt lat="48.06086" lon="-4.71229">
        <ele>39</ele>
        <time>2011-11-13T15:22:53Z</time>
      </trkpt>
      <trkpt lat="48.06082" lon="-4.71225">
        <ele>44</ele>
        <time>2011-11-13T15:22:57Z</time>
      </trkpt>
      <trkpt lat="48.06077" lon="-4.71221">
        <ele>39</ele>
        <time>2011-11-13T15:23:01Z</time>
      </trkpt>
      <trkpt lat="48.06073" lon="-4.71218">
        <ele>40</ele>
        <time>2011-11-13T15:23:05Z</time>
      </trkpt>
      <trkpt lat="48.06069" lon="-4.71215">
        <ele>39</ele>
        <time>2011-11-13T15:23:09Z</time>
      </trkpt>
      <trkpt lat="48.06059" lon="-4.7121">
        <ele>37</ele>
        <time>2011-11-13T15:23:17Z</time>
      </trkpt>
      <trkpt lat="48.0605" lon="-4.71208">
        <ele>39</ele>
        <time>2011-11-13T15:23:25Z</time>
      </trkpt>
      <trkpt lat="48.06045" lon="-4.71207">
        <ele>45</ele>
        <time>2011-11-13T15:23:30Z</time>
      </trkpt>
      <trkpt lat="48.06031" lon="-4.71202">
        <ele>35</ele>
        <time>2011-11-13T15:23:41Z</time>
      </trkpt>
      <trkpt lat="48.06026" lon="-4.71198">
        <ele>41</ele>
        <time>2011-11-13T15:23:45Z</time>
      </trkpt>
      <trkpt lat="48.06022" lon="-4.71194">
        <ele>38</ele>
        <time>2011-11-13T15:23:49Z</time>
      </trkpt>
      <trkpt lat="48.06013" lon="-4.71189">
        <ele>42</ele>
        <time>2011-11-13T15:23:59Z</time>
      </trkpt>
      <trkpt lat="48.06008" lon="-4.71185">
        <ele>42</ele>
        <time>2011-11-13T15:24:04Z</time>
      </trkpt>
      <trkpt lat="48.06003" lon="-4.71183">
        <ele>39</ele>
        <time>2011-11-13T15:24:07Z</time>
      </trkpt>
      <trkpt lat="48.05998" lon="-4.71182">
        <ele>40</ele>
        <time>2011-11-13T15:24:12Z</time>
      </trkpt>
      <trkpt lat="48.05992" lon="-4.71185">
        <ele>43</ele>
        <time>2011-11-13T15:24:17Z</time>
      </trkpt>
      <trkpt lat="48.05989" lon="-4.71192">
        <ele>41</ele>
        <time>2011-11-13T15:24:22Z</time>
      </trkpt>
      <trkpt lat="48.05987" lon="-4.712">
        <ele>38</ele>
        <time>2011-11-13T15:24:27Z</time>
      </trkpt>
      <trkpt lat="48.05986" lon="-4.71204">
        <ele>39</ele>
        <time>2011-11-13T15:24:34Z</time>
      </trkpt>
      <trkpt lat="48.05982" lon="-4.71206">
        <ele>34</ele>
        <time>2011-11-13T15:24:48Z</time>
      </trkpt>
      <trkpt lat="48.05979" lon="-4.712">
        <ele>38</ele>
        <time>2011-11-13T15:24:59Z</time>
      </trkpt>
      <trkpt lat="48.05975" lon="-4.71196">
        <ele>38</ele>
        <time>2011-11-13T15:25:03Z</time>
      </trkpt>
      <trkpt lat="48.05971" lon="-4.71193">
        <ele>39</ele>
        <time>2011-11-13T15:25:06Z</time>
      </trkpt>
      <trkpt lat="48.05965" lon="-4.71189">
        <ele>39</ele>
        <time>2011-11-13T15:25:12Z</time>
      </trkpt>
      <trkpt lat="48.0596" lon="-4.71185">
        <ele>37</ele>
        <time>2011-11-13T15:25:16Z</time>
      </trkpt>
      <trkpt lat="48.0595" lon="-4.71179">
        <ele>40</ele>
        <time>2011-11-13T15:25:25Z</time>
      </trkpt>
      <trkpt lat="48.05945" lon="-4.71179">
        <ele>35</ele>
        <time>2011-11-13T15:25:29Z</time>
      </trkpt>
      <trkpt lat="48.0594" lon="-4.71178">
        <ele>37</ele>
        <time>2011-11-13T15:25:34Z</time>
      </trkpt>
      <trkpt lat="48.05935" lon="-4.71176">
        <ele>36</ele>
        <time>2011-11-13T15:25:38Z</time>
      </trkpt>
      <trkpt lat="48.05926" lon="-4.71171">
        <ele>40</ele>
        <time>2011-11-13T15:25:47Z</time>
      </trkpt>
      <trkpt lat="48.05925" lon="-4.71157">
        <ele>42</ele>
        <time>2011-11-13T15:25:56Z</time>
      </trkpt>
      <trkpt lat="48.05924" lon="-4.71151">
        <ele>44</ele>
        <time>2011-11-13T15:26:02Z</time>
      </trkpt>
      <trkpt lat="48.0592" lon="-4.71156">
        <ele>41</ele>
        <time>2011-11-13T15:26:17Z</time>
      </trkpt>
      <trkpt lat="48.05915" lon="-4.71167">
        <ele>40</ele>
        <time>2011-11-13T15:26:23Z</time>
      </trkpt>
      <trkpt lat="48.05913" lon="-4.71174">
        <ele>40</ele>
        <time>2011-11-13T15:26:27Z</time>
      </trkpt>
      <trkpt lat="48.0591" lon="-4.7118">
        <ele>40</ele>
        <time>2011-11-13T15:26:31Z</time>
      </trkpt>
      <trkpt lat="48.05906" lon="-4.71186">
        <ele>38</ele>
        <time>2011-11-13T15:26:35Z</time>
      </trkpt>
      <trkpt lat="48.05898" lon="-4.71195">
        <ele>45</ele>
        <time>2011-11-13T15:26:43Z</time>
      </trkpt>
      <trkpt lat="48.05895" lon="-4.71201">
        <ele>44</ele>
        <time>2011-11-13T15:26:47Z</time>
      </trkpt>
      <trkpt lat="48.05893" lon="-4.71208">
        <ele>38</ele>
        <time>2011-11-13T15:26:51Z</time>
      </trkpt>
      <trkpt lat="48.05892" lon="-4.71216">
        <ele>39</ele>
        <time>2011-11-13T15:26:55Z</time>
      </trkpt>
      <trkpt lat="48.05889" lon="-4.71232">
        <ele>42</ele>
        <time>2011-11-13T15:27:04Z</time>
      </trkpt>
      <trkpt lat="48.05884" lon="-4.71236">
        <ele>41</ele>
        <time>2011-11-13T15:27:08Z</time>
      </trkpt>
      <trkpt lat="48.0588" lon="-4.71242">
        <ele>41</ele>
        <time>2011-11-13T15:27:12Z</time>
      </trkpt>
      <trkpt lat="48.05874" lon="-4.71252">
        <ele>40</ele>
        <time>2011-11-13T15:27:19Z</time>
      </trkpt>
      <trkpt lat="48.0587" lon="-4.71258">
        <ele>44</ele>
        <time>2011-11-13T15:27:23Z</time>
      </trkpt>
      <trkpt lat="48.05868" lon="-4.71264">
        <ele>39</ele>
        <time>2011-11-13T15:27:27Z</time>
      </trkpt>
      <trkpt lat="48.05863" lon="-4.71268">
        <ele>42</ele>
        <time>2011-11-13T15:27:32Z</time>
      </trkpt>
      <trkpt lat="48.05859" lon="-4.71272">
        <ele>42</ele>
        <time>2011-11-13T15:27:35Z</time>
      </trkpt>
      <trkpt lat="48.05853" lon="-4.71278">
        <ele>39</ele>
        <time>2011-11-13T15:27:41Z</time>
      </trkpt>
      <trkpt lat="48.05851" lon="-4.71286">
        <ele>42</ele>
        <time>2011-11-13T15:27:47Z</time>
      </trkpt>
      <trkpt lat="48.05848" lon="-4.71291">
        <ele>38</ele>
        <time>2011-11-13T15:27:53Z</time>
      </trkpt>
      <trkpt lat="48.05844" lon="-4.71296">
        <ele>36</ele>
        <time>2011-11-13T15:28:13Z</time>
      </trkpt>
      <trkpt lat="48.05833" lon="-4.71299">
        <ele>34</ele>
        <time>2011-11-13T15:28:53Z</time>
      </trkpt>
      <trkpt lat="48.05827" lon="-4.713">
        <ele>34</ele>
        <time>2011-11-13T15:28:58Z</time>
      </trkpt>
      <trkpt lat="48.05823" lon="-4.71302">
        <ele>37</ele>
        <time>2011-11-13T15:29:01Z</time>
      </trkpt>
      <trkpt lat="48.05816" lon="-4.71304">
        <ele>34</ele>
        <time>2011-11-13T15:29:06Z</time>
      </trkpt>
      <trkpt lat="48.05808" lon="-4.7131">
        <ele>41</ele>
        <time>2011-11-13T15:29:14Z</time>
      </trkpt>
      <trkpt lat="48.05804" lon="-4.71315">
        <ele>36</ele>
        <time>2011-11-13T15:29:18Z</time>
      </trkpt>
      <trkpt lat="48.058" lon="-4.7132">
        <ele>38</ele>
        <time>2011-11-13T15:29:22Z</time>
      </trkpt>
      <trkpt lat="48.05785" lon="-4.7134">
        <ele>32</ele>
        <time>2011-11-13T15:29:38Z</time>
      </trkpt>
      <trkpt lat="48.05781" lon="-4.71339">
        <ele>36</ele>
        <time>2011-11-13T15:29:42Z</time>
      </trkpt>
      <trkpt lat="48.05777" lon="-4.71334">
        <ele>32</ele>
        <time>2011-11-13T15:29:46Z</time>
      </trkpt>
      <trkpt lat="48.05768" lon="-4.71322">
        <ele>40</ele>
        <time>2011-11-13T15:30:03Z</time>
      </trkpt>
      <trkpt lat="48.05762" lon="-4.71305">
        <ele>32</ele>
        <time>2011-11-13T15:30:18Z</time>
      </trkpt>
      <trkpt lat="48.05762" lon="-4.71297">
        <ele>33</ele>
        <time>2011-11-13T15:30:25Z</time>
      </trkpt>
      <trkpt lat="48.05761" lon="-4.71281">
        <ele>43</ele>
        <time>2011-11-13T15:30:33Z</time>
      </trkpt>
      <trkpt lat="48.0576" lon="-4.71274">
        <ele>43</ele>
        <time>2011-11-13T15:30:38Z</time>
      </trkpt>
      <trkpt lat="48.05755" lon="-4.71261">
        <ele>49</ele>
        <time>2011-11-13T15:30:49Z</time>
      </trkpt>
      <trkpt lat="48.05731" lon="-4.71251">
        <ele>37</ele>
        <time>2011-11-13T15:31:15Z</time>
      </trkpt>
      <trkpt lat="48.05717" lon="-4.71247">
        <ele>43</ele>
        <time>2011-11-13T15:31:34Z</time>
      </trkpt>
      <trkpt lat="48.05712" lon="-4.71245">
        <ele>39</ele>
        <time>2011-11-13T15:31:39Z</time>
      </trkpt>
      <trkpt lat="48.05707" lon="-4.71245">
        <ele>42</ele>
        <time>2011-11-13T15:31:43Z</time>
      </trkpt>
      <trkpt lat="48.05702" lon="-4.71245">
        <ele>42</ele>
        <time>2011-11-13T15:31:46Z</time>
      </trkpt>
      <trkpt lat="48.05697" lon="-4.71243">
        <ele>38</ele>
        <time>2011-11-13T15:31:51Z</time>
      </trkpt>
      <trkpt lat="48.05691" lon="-4.71242">
        <ele>38</ele>
        <time>2011-11-13T15:31:57Z</time>
      </trkpt>
      <trkpt lat="48.05687" lon="-4.71239">
        <ele>34</ele>
        <time>2011-11-13T15:32:01Z</time>
      </trkpt>
      <trkpt lat="48.05682" lon="-4.71235">
        <ele>34</ele>
        <time>2011-11-13T15:32:07Z</time>
      </trkpt>
      <trkpt lat="48.0568" lon="-4.71226">
        <ele>35</ele>
        <time>2011-11-13T15:32:14Z</time>
      </trkpt>
      <trkpt lat="48.05679" lon="-4.71219">
        <ele>31</ele>
        <time>2011-11-13T15:32:17Z</time>
      </trkpt>
      <trkpt lat="48.05677" lon="-4.71204">
        <ele>36</ele>
        <time>2011-11-13T15:32:25Z</time>
      </trkpt>
      <trkpt lat="48.0568" lon="-4.71188">
        <ele>28</ele>
        <time>2011-11-13T15:32:35Z</time>
      </trkpt>
      <trkpt lat="48.05682" lon="-4.71182">
        <ele>29</ele>
        <time>2011-11-13T15:32:39Z</time>
      </trkpt>
      <trkpt lat="48.05685" lon="-4.71173">
        <ele>23</ele>
        <time>2011-11-13T15:32:45Z</time>
      </trkpt>
      <trkpt lat="48.05687" lon="-4.71166">
        <ele>28</ele>
        <time>2011-11-13T15:32:50Z</time>
      </trkpt>
      <trkpt lat="48.05685" lon="-4.71157">
        <ele>29</ele>
        <time>2011-11-13T15:33:07Z</time>
      </trkpt>
      <trkpt lat="48.0568" lon="-4.71154">
        <ele>27</ele>
        <time>2011-11-13T15:33:14Z</time>
      </trkpt>
      <trkpt lat="48.05675" lon="-4.71162">
        <ele>26</ele>
        <time>2011-11-13T15:33:44Z</time>
      </trkpt>
      <trkpt lat="48.05669" lon="-4.71165">
        <ele>24</ele>
        <time>2011-11-13T15:33:55Z</time>
      </trkpt>
      <trkpt lat="48.05663" lon="-4.71156">
        <ele>17</ele>
        <time>2011-11-13T15:34:04Z</time>
      </trkpt>
      <trkpt lat="48.05659" lon="-4.71149">
        <ele>22</ele>
        <time>2011-11-13T15:34:11Z</time>
      </trkpt>
      <trkpt lat="48.05659" lon="-4.71146">
        <ele>19</ele>
        <time>2011-11-13T15:34:17Z</time>
      </trkpt>
      <trkpt lat="48.05664" lon="-4.71141">
        <ele>23</ele>
        <time>2011-11-13T15:34:39Z</time>
      </trkpt>
      <trkpt lat="48.05673" lon="-4.7113">
        <ele>24</ele>
        <time>2011-11-13T15:34:55Z</time>
      </trkpt>
      <trkpt lat="48.05673" lon="-4.71126">
        <ele>23</ele>
        <time>2011-11-13T15:35:12Z</time>
      </trkpt>
      <trkpt lat="48.05674" lon="-4.71121">
        <ele>30</ele>
        <time>2011-11-13T15:35:20Z</time>
      </trkpt>
      <trkpt lat="48.0567" lon="-4.71116">
        <ele>28</ele>
        <time>2011-11-13T15:35:34Z</time>
      </trkpt>
      <trkpt lat="48.05655" lon="-4.71115">
        <ele>31</ele>
        <time>2011-11-13T15:35:53Z</time>
      </trkpt>
      <trkpt lat="48.05651" lon="-4.71115">
        <ele>30</ele>
        <time>2011-11-13T15:35:58Z</time>
      </trkpt>
      <trkpt lat="48.05646" lon="-4.71116">
        <ele>33</ele>
        <time>2011-11-13T15:36:03Z</time>
      </trkpt>
      <trkpt lat="48.05641" lon="-4.71115">
        <ele>34</ele>
        <time>2011-11-13T15:36:09Z</time>
      </trkpt>
      <trkpt lat="48.05637" lon="-4.71117">
        <ele>32</ele>
        <time>2011-11-13T15:36:14Z</time>
      </trkpt>
      <trkpt lat="48.05632" lon="-4.71122">
        <ele>35</ele>
        <time>2011-11-13T15:36:19Z</time>
      </trkpt>
      <trkpt lat="48.05624" lon="-4.71117">
        <ele>34</ele>
        <time>2011-11-13T15:36:30Z</time>
      </trkpt>
      <trkpt lat="48.05609" lon="-4.71094">
        <ele>18</ele>
        <time>2011-11-13T15:36:58Z</time>
      </trkpt>
      <trkpt lat="48.05605" lon="-4.71092">
        <ele>23</ele>
        <time>2011-11-13T15:37:08Z</time>
      </trkpt>
      <trkpt lat="48.056" lon="-4.71087">
        <ele>21</ele>
        <time>2011-11-13T15:37:19Z</time>
      </trkpt>
      <trkpt lat="48.05597" lon="-4.71087">
        <ele>10</ele>
        <time>2011-11-13T15:37:30Z</time>
      </trkpt>
      <trkpt lat="48.05591" lon="-4.71084">
        <ele>18</ele>
        <time>2011-11-13T15:37:44Z</time>
      </trkpt>
      <trkpt lat="48.05587" lon="-4.7108">
        <ele>12</ele>
        <time>2011-11-13T15:37:50Z</time>
      </trkpt>
      <trkpt lat="48.05583" lon="-4.71075">
        <ele>15</ele>
        <time>2011-11-13T15:37:57Z</time>
      </trkpt>
      <trkpt lat="48.05579" lon="-4.7107">
        <ele>15</ele>
        <time>2011-11-13T15:38:05Z</time>
      </trkpt>
      <trkpt lat="48.05575" lon="-4.71066">
        <ele>20</ele>
        <time>2011-11-13T15:38:10Z</time>
      </trkpt>
      <trkpt lat="48.05558" lon="-4.71048">
        <ele>1</ele>
        <time>2011-11-13T15:38:29Z</time>
      </trkpt>
      <trkpt lat="48.05555" lon="-4.71033">
        <ele>16</ele>
        <time>2011-11-13T15:38:40Z</time>
      </trkpt>
      <trkpt lat="48.05552" lon="-4.71027">
        <ele>9</ele>
        <time>2011-11-13T15:38:47Z</time>
      </trkpt>
      <trkpt lat="48.0555" lon="-4.71021">
        <ele>19</ele>
        <time>2011-11-13T15:38:55Z</time>
      </trkpt>
      <trkpt lat="48.05547" lon="-4.71019">
        <ele>16</ele>
        <time>2011-11-13T15:39:01Z</time>
      </trkpt>
      <trkpt lat="48.05542" lon="-4.71025">
        <ele>19</ele>
        <time>2011-11-13T15:39:50Z</time>
      </trkpt>
      <trkpt lat="48.05539" lon="-4.71031">
        <ele>22</ele>
        <time>2011-11-13T15:39:54Z</time>
      </trkpt>
      <trkpt lat="48.05536" lon="-4.71036">
        <ele>17</ele>
        <time>2011-11-13T15:39:57Z</time>
      </trkpt>
      <trkpt lat="48.05531" lon="-4.71039">
        <ele>16</ele>
        <time>2011-11-13T15:40:03Z</time>
      </trkpt>
      <trkpt lat="48.05528" lon="-4.71045">
        <ele>14</ele>
        <time>2011-11-13T15:40:08Z</time>
      </trkpt>
      <trkpt lat="48.05525" lon="-4.7104">
        <ele>11</ele>
        <time>2011-11-13T15:40:17Z</time>
      </trkpt>
      <trkpt lat="48.05516" lon="-4.71027">
        <ele>28</ele>
        <time>2011-11-13T15:40:40Z</time>
      </trkpt>
      <trkpt lat="48.05513" lon="-4.71022">
        <ele>27</ele>
        <time>2011-11-13T15:40:49Z</time>
      </trkpt>
      <trkpt lat="48.05512" lon="-4.7103">
        <ele>27</ele>
        <time>2011-11-13T15:40:55Z</time>
      </trkpt>
      <trkpt lat="48.05512" lon="-4.71037">
        <ele>28</ele>
        <time>2011-11-13T15:41:00Z</time>
      </trkpt>
      <trkpt lat="48.05511" lon="-4.71044">
        <ele>26</ele>
        <time>2011-11-13T15:41:06Z</time>
      </trkpt>
      <trkpt lat="48.05509" lon="-4.7105">
        <ele>26</ele>
        <time>2011-11-13T15:41:12Z</time>
      </trkpt>
      <trkpt lat="48.05507" lon="-4.71057">
        <ele>31</ele>
        <time>2011-11-13T15:41:19Z</time>
      </trkpt>
      <trkpt lat="48.05505" lon="-4.71063">
        <ele>25</ele>
        <time>2011-11-13T15:41:25Z</time>
      </trkpt>
      <trkpt lat="48.05497" lon="-4.71072">
        <ele>33</ele>
        <time>2011-11-13T15:41:56Z</time>
      </trkpt>
      <trkpt lat="48.05493" lon="-4.71075">
        <ele>31</ele>
        <time>2011-11-13T15:42:04Z</time>
      </trkpt>
      <trkpt lat="48.05486" lon="-4.71092">
        <ele>40</ele>
        <time>2011-11-13T15:42:20Z</time>
      </trkpt>
      <trkpt lat="48.05483" lon="-4.71097">
        <ele>38</ele>
        <time>2011-11-13T15:42:26Z</time>
      </trkpt>
      <trkpt lat="48.05481" lon="-4.71104">
        <ele>38</ele>
        <time>2011-11-13T15:42:32Z</time>
      </trkpt>
      <trkpt lat="48.05478" lon="-4.71109">
        <ele>41</ele>
        <time>2011-11-13T15:42:37Z</time>
      </trkpt>
      <trkpt lat="48.05473" lon="-4.71117">
        <ele>36</ele>
        <time>2011-11-13T15:42:44Z</time>
      </trkpt>
      <trkpt lat="48.05469" lon="-4.71122">
        <ele>40</ele>
        <time>2011-11-13T15:42:48Z</time>
      </trkpt>
      <trkpt lat="48.05457" lon="-4.71136">
        <ele>37</ele>
        <time>2011-11-13T15:43:05Z</time>
      </trkpt>
      <trkpt lat="48.05453" lon="-4.71141">
        <ele>37</ele>
        <time>2011-11-13T15:43:10Z</time>
      </trkpt>
      <trkpt lat="48.05452" lon="-4.71149">
        <ele>37</ele>
        <time>2011-11-13T15:43:14Z</time>
      </trkpt>
      <trkpt lat="48.05452" lon="-4.71152">
        <ele>40</ele>
        <time>2011-11-13T15:43:20Z</time>
      </trkpt>
      <trkpt lat="48.05452" lon="-4.71156">
        <ele>37</ele>
        <time>2011-11-13T15:43:54Z</time>
      </trkpt>
      <trkpt lat="48.05451" lon="-4.71159">
        <ele>36</ele>
        <time>2011-11-13T15:44:00Z</time>
      </trkpt>
      <trkpt lat="48.05449" lon="-4.71165">
        <ele>36</ele>
        <time>2011-11-13T15:44:05Z</time>
      </trkpt>
      <trkpt lat="48.05443" lon="-4.71176">
        <ele>38</ele>
        <time>2011-11-13T15:44:14Z</time>
      </trkpt>
      <trkpt lat="48.0544" lon="-4.71181">
        <ele>33</ele>
        <time>2011-11-13T15:44:17Z</time>
      </trkpt>
      <trkpt lat="48.05436" lon="-4.71186">
        <ele>41</ele>
        <time>2011-11-13T15:44:23Z</time>
      </trkpt>
      <trkpt lat="48.05433" lon="-4.71192">
        <ele>40</ele>
        <time>2011-11-13T15:44:27Z</time>
      </trkpt>
      <trkpt lat="48.05432" lon="-4.71199">
        <ele>40</ele>
        <time>2011-11-13T15:44:31Z</time>
      </trkpt>
      <trkpt lat="48.05429" lon="-4.71205">
        <ele>43</ele>
        <time>2011-11-13T15:44:35Z</time>
      </trkpt>
      <trkpt lat="48.05421" lon="-4.71217">
        <ele>33</ele>
        <time>2011-11-13T15:44:43Z</time>
      </trkpt>
      <trkpt lat="48.05419" lon="-4.71224">
        <ele>38</ele>
        <time>2011-11-13T15:44:50Z</time>
      </trkpt>
      <trkpt lat="48.05412" lon="-4.71226">
        <ele>38</ele>
        <time>2011-11-13T15:45:00Z</time>
      </trkpt>
      <trkpt lat="48.05409" lon="-4.71231">
        <ele>37</ele>
        <time>2011-11-13T15:45:05Z</time>
      </trkpt>
      <trkpt lat="48.05404" lon="-4.71234">
        <ele>38</ele>
        <time>2011-11-13T15:45:10Z</time>
      </trkpt>
      <trkpt lat="48.05399" lon="-4.71234">
        <ele>34</ele>
        <time>2011-11-13T15:45:15Z</time>
      </trkpt>
      <trkpt lat="48.05395" lon="-4.71232">
        <ele>35</ele>
        <time>2011-11-13T15:45:20Z</time>
      </trkpt>
      <trkpt lat="48.0539" lon="-4.71229">
        <ele>29</ele>
        <time>2011-11-13T15:45:27Z</time>
      </trkpt>
      <trkpt lat="48.05386" lon="-4.7123">
        <ele>28</ele>
        <time>2011-11-13T15:45:59Z</time>
      </trkpt>
      <trkpt lat="48.05385" lon="-4.71237">
        <ele>32</ele>
        <time>2011-11-13T15:46:08Z</time>
      </trkpt>
      <trkpt lat="48.0538" lon="-4.71246">
        <ele>28</ele>
        <time>2011-11-13T15:46:21Z</time>
      </trkpt>
      <trkpt lat="48.05377" lon="-4.71251">
        <ele>31</ele>
        <time>2011-11-13T15:46:24Z</time>
      </trkpt>
      <trkpt lat="48.05366" lon="-4.71275">
        <ele>23</ele>
        <time>2011-11-13T15:46:48Z</time>
      </trkpt>
      <trkpt lat="48.05362" lon="-4.71275">
        <ele>27</ele>
        <time>2011-11-13T15:47:22Z</time>
      </trkpt>
      <trkpt lat="48.05362" lon="-4.71268">
        <ele>28</ele>
        <time>2011-11-13T15:47:30Z</time>
      </trkpt>
      <trkpt lat="48.05357" lon="-4.71255">
        <ele>19</ele>
        <time>2011-11-13T15:47:39Z</time>
      </trkpt>
      <trkpt lat="48.05354" lon="-4.71249">
        <ele>20</ele>
        <time>2011-11-13T15:47:43Z</time>
      </trkpt>
      <trkpt lat="48.05352" lon="-4.71242">
        <ele>25</ele>
        <time>2011-11-13T15:47:47Z</time>
      </trkpt>
      <trkpt lat="48.05347" lon="-4.71217">
        <ele>14</ele>
        <time>2011-11-13T15:48:15Z</time>
      </trkpt>
      <trkpt lat="48.05345" lon="-4.71211">
        <ele>19</ele>
        <time>2011-11-13T15:48:23Z</time>
      </trkpt>
      <trkpt lat="48.05342" lon="-4.71204">
        <ele>13</ele>
        <time>2011-11-13T15:48:30Z</time>
      </trkpt>
      <trkpt lat="48.05342" lon="-4.71195">
        <ele>14</ele>
        <time>2011-11-13T15:48:35Z</time>
      </trkpt>
      <trkpt lat="48.05344" lon="-4.71189">
        <ele>12</ele>
        <time>2011-11-13T15:48:39Z</time>
      </trkpt>
      <trkpt lat="48.05345" lon="-4.71181">
        <ele>16</ele>
        <time>2011-11-13T15:48:43Z</time>
      </trkpt>
      <trkpt lat="48.05346" lon="-4.71174">
        <ele>13</ele>
        <time>2011-11-13T15:48:47Z</time>
      </trkpt>
      <trkpt lat="48.05346" lon="-4.71159">
        <ele>14</ele>
        <time>2011-11-13T15:48:57Z</time>
      </trkpt>
      <trkpt lat="48.05345" lon="-4.71152">
        <ele>11</ele>
        <time>2011-11-13T15:49:00Z</time>
      </trkpt>
      <trkpt lat="48.05345" lon="-4.71136">
        <ele>15</ele>
        <time>2011-11-13T15:49:23Z</time>
      </trkpt>
      <trkpt lat="48.05344" lon="-4.71121">
        <ele>11</ele>
        <time>2011-11-13T15:49:31Z</time>
      </trkpt>
      <trkpt lat="48.05343" lon="-4.7111">
        <ele>18</ele>
        <time>2011-11-13T15:49:38Z</time>
      </trkpt>
      <trkpt lat="48.05343" lon="-4.71087">
        <ele>10</ele>
        <time>2011-11-13T15:49:51Z</time>
      </trkpt>
      <trkpt lat="48.05342" lon="-4.71079">
        <ele>13</ele>
        <time>2011-11-13T15:49:56Z</time>
      </trkpt>
      <trkpt lat="48.05341" lon="-4.71072">
        <ele>13</ele>
        <time>2011-11-13T15:50:01Z</time>
      </trkpt>
      <trkpt lat="48.05341" lon="-4.71065">
        <ele>15</ele>
        <time>2011-11-13T15:50:05Z</time>
      </trkpt>
      <trkpt lat="48.0534" lon="-4.71058">
        <ele>16</ele>
        <time>2011-11-13T15:50:10Z</time>
      </trkpt>
      <trkpt lat="48.05339" lon="-4.71051">
        <ele>21</ele>
        <time>2011-11-13T15:50:14Z</time>
      </trkpt>
      <trkpt lat="48.05339" lon="-4.71044">
        <ele>21</ele>
        <time>2011-11-13T15:50:18Z</time>
      </trkpt>
      <trkpt lat="48.0534" lon="-4.71037">
        <ele>24</ele>
        <time>2011-11-13T15:50:24Z</time>
      </trkpt>
      <trkpt lat="48.0534" lon="-4.71029">
        <ele>21</ele>
        <time>2011-11-13T15:50:29Z</time>
      </trkpt>
      <trkpt lat="48.0534" lon="-4.71016">
        <ele>24</ele>
        <time>2011-11-13T15:50:39Z</time>
      </trkpt>
      <trkpt lat="48.05334" lon="-4.70995">
        <ele>19</ele>
        <time>2011-11-13T15:50:53Z</time>
      </trkpt>
      <trkpt lat="48.05329" lon="-4.70983">
        <ele>24</ele>
        <time>2011-11-13T15:51:02Z</time>
      </trkpt>
      <trkpt lat="48.05326" lon="-4.70976">
        <ele>21</ele>
        <time>2011-11-13T15:51:07Z</time>
      </trkpt>
      <trkpt lat="48.05322" lon="-4.70962">
        <ele>22</ele>
        <time>2011-11-13T15:51:17Z</time>
      </trkpt>
      <trkpt lat="48.05318" lon="-4.70949">
        <ele>29</ele>
        <time>2011-11-13T15:51:26Z</time>
      </trkpt>
      <trkpt lat="48.05315" lon="-4.70944">
        <ele>22</ele>
        <time>2011-11-13T15:51:30Z</time>
      </trkpt>
      <trkpt lat="48.05313" lon="-4.70938">
        <ele>26</ele>
        <time>2011-11-13T15:51:35Z</time>
      </trkpt>
      <trkpt lat="48.0531" lon="-4.70931">
        <ele>22</ele>
        <time>2011-11-13T15:51:40Z</time>
      </trkpt>
      <trkpt lat="48.05307" lon="-4.70926">
        <ele>23</ele>
        <time>2011-11-13T15:51:45Z</time>
      </trkpt>
      <trkpt lat="48.05305" lon="-4.7092">
        <ele>23</ele>
        <time>2011-11-13T15:51:49Z</time>
      </trkpt>
      <trkpt lat="48.05303" lon="-4.70913">
        <ele>24</ele>
        <time>2011-11-13T15:51:54Z</time>
      </trkpt>
      <trkpt lat="48.05292" lon="-4.70889">
        <ele>33</ele>
        <time>2011-11-13T15:52:14Z</time>
      </trkpt>
      <trkpt lat="48.0529" lon="-4.70882">
        <ele>29</ele>
        <time>2011-11-13T15:52:19Z</time>
      </trkpt>
      <trkpt lat="48.05284" lon="-4.70876">
        <ele>32</ele>
        <time>2011-11-13T15:52:45Z</time>
      </trkpt>
      <trkpt lat="48.05279" lon="-4.70874">
        <ele>32</ele>
        <time>2011-11-13T15:52:48Z</time>
      </trkpt>
      <trkpt lat="48.05274" lon="-4.70872">
        <ele>34</ele>
        <time>2011-11-13T15:52:53Z</time>
      </trkpt>
      <trkpt lat="48.05263" lon="-4.70869">
        <ele>33</ele>
        <time>2011-11-13T15:53:02Z</time>
      </trkpt>
      <trkpt lat="48.05259" lon="-4.70867">
        <ele>34</ele>
        <time>2011-11-13T15:53:06Z</time>
      </trkpt>
      <trkpt lat="48.05253" lon="-4.70865">
        <ele>33</ele>
        <time>2011-11-13T15:53:11Z</time>
      </trkpt>
      <trkpt lat="48.05249" lon="-4.70862">
        <ele>36</ele>
        <time>2011-11-13T15:53:15Z</time>
      </trkpt>
      <trkpt lat="48.05244" lon="-4.70858">
        <ele>32</ele>
        <time>2011-11-13T15:53:19Z</time>
      </trkpt>
      <trkpt lat="48.05234" lon="-4.70853">
        <ele>34</ele>
        <time>2011-11-13T15:53:28Z</time>
      </trkpt>
      <trkpt lat="48.05229" lon="-4.70852">
        <ele>33</ele>
        <time>2011-11-13T15:53:35Z</time>
      </trkpt>
      <trkpt lat="48.0521" lon="-4.70859">
        <ele>45</ele>
        <time>2011-11-13T15:53:54Z</time>
      </trkpt>
      <trkpt lat="48.05208" lon="-4.70865">
        <ele>39</ele>
        <time>2011-11-13T15:53:58Z</time>
      </trkpt>
      <trkpt lat="48.05207" lon="-4.70872">
        <ele>39</ele>
        <time>2011-11-13T15:54:03Z</time>
      </trkpt>
      <trkpt lat="48.05201" lon="-4.70896">
        <ele>32</ele>
        <time>2011-11-13T15:54:17Z</time>
      </trkpt>
      <trkpt lat="48.05199" lon="-4.70901">
        <ele>32</ele>
        <time>2011-11-13T15:54:21Z</time>
      </trkpt>
      <trkpt lat="48.05195" lon="-4.70906">
        <ele>35</ele>
        <time>2011-11-13T15:54:26Z</time>
      </trkpt>
      <trkpt lat="48.05187" lon="-4.70917">
        <ele>36</ele>
        <time>2011-11-13T15:54:35Z</time>
      </trkpt>
      <trkpt lat="48.05183" lon="-4.7092">
        <ele>34</ele>
        <time>2011-11-13T15:54:41Z</time>
      </trkpt>
      <trkpt lat="48.05178" lon="-4.70926">
        <ele>35</ele>
        <time>2011-11-13T15:54:50Z</time>
      </trkpt>
      <trkpt lat="48.05174" lon="-4.70931">
        <ele>35</ele>
        <time>2011-11-13T15:54:55Z</time>
      </trkpt>
      <trkpt lat="48.05172" lon="-4.70937">
        <ele>38</ele>
        <time>2011-11-13T15:55:00Z</time>
      </trkpt>
      <trkpt lat="48.0516" lon="-4.70952">
        <ele>37</ele>
        <time>2011-11-13T15:55:13Z</time>
      </trkpt>
      <trkpt lat="48.05157" lon="-4.70957">
        <ele>31</ele>
        <time>2011-11-13T15:55:17Z</time>
      </trkpt>
      <trkpt lat="48.05152" lon="-4.70953">
        <ele>33</ele>
        <time>2011-11-13T15:55:35Z</time>
      </trkpt>
      <trkpt lat="48.05154" lon="-4.70954">
        <ele>28</ele>
        <time>2011-11-13T15:55:56Z</time>
      </trkpt>
      <trkpt lat="48.05155" lon="-4.70947">
        <ele>34</ele>
        <time>2011-11-13T15:56:05Z</time>
      </trkpt>
      <trkpt lat="48.05153" lon="-4.70939">
        <ele>35</ele>
        <time>2011-11-13T15:56:11Z</time>
      </trkpt>
      <trkpt lat="48.0515" lon="-4.70933">
        <ele>35</ele>
        <time>2011-11-13T15:56:18Z</time>
      </trkpt>
      <trkpt lat="48.05146" lon="-4.70927">
        <ele>41</ele>
        <time>2011-11-13T15:56:23Z</time>
      </trkpt>
      <trkpt lat="48.05142" lon="-4.70922">
        <ele>35</ele>
        <time>2011-11-13T15:56:29Z</time>
      </trkpt>
      <trkpt lat="48.05138" lon="-4.70917">
        <ele>38</ele>
        <time>2011-11-13T15:56:35Z</time>
      </trkpt>
      <trkpt lat="48.05134" lon="-4.70912">
        <ele>33</ele>
        <time>2011-11-13T15:56:41Z</time>
      </trkpt>
      <trkpt lat="48.05123" lon="-4.70898">
        <ele>43</ele>
        <time>2011-11-13T15:56:55Z</time>
      </trkpt>
      <trkpt lat="48.05116" lon="-4.7089">
        <ele>37</ele>
        <time>2011-11-13T15:57:05Z</time>
      </trkpt>
      <trkpt lat="48.05114" lon="-4.70883">
        <ele>42</ele>
        <time>2011-11-13T15:57:11Z</time>
      </trkpt>
      <trkpt lat="48.05111" lon="-4.70877">
        <ele>35</ele>
        <time>2011-11-13T15:57:18Z</time>
      </trkpt>
      <trkpt lat="48.05108" lon="-4.70872">
        <ele>38</ele>
        <time>2011-11-13T15:57:22Z</time>
      </trkpt>
      <trkpt lat="48.05105" lon="-4.70866">
        <ele>38</ele>
        <time>2011-11-13T15:57:27Z</time>
      </trkpt>
      <trkpt lat="48.05102" lon="-4.7086">
        <ele>40</ele>
        <time>2011-11-13T15:57:33Z</time>
      </trkpt>
      <trkpt lat="48.051" lon="-4.70853">
        <ele>34</ele>
        <time>2011-11-13T15:57:39Z</time>
      </trkpt>
      <trkpt lat="48.05097" lon="-4.70848">
        <ele>38</ele>
        <time>2011-11-13T15:57:44Z</time>
      </trkpt>
      <trkpt lat="48.05095" lon="-4.70841">
        <ele>38</ele>
        <time>2011-11-13T15:57:50Z</time>
      </trkpt>
      <trkpt lat="48.05093" lon="-4.70836">
        <ele>39</ele>
        <time>2011-11-13T15:57:55Z</time>
      </trkpt>
      <trkpt lat="48.05091" lon="-4.70829">
        <ele>37</ele>
        <time>2011-11-13T15:58:01Z</time>
      </trkpt>
      <trkpt lat="48.05086" lon="-4.70816">
        <ele>44</ele>
        <time>2011-11-13T15:58:13Z</time>
      </trkpt>
      <trkpt lat="48.05083" lon="-4.70809">
        <ele>44</ele>
        <time>2011-11-13T15:58:18Z</time>
      </trkpt>
      <trkpt lat="48.05081" lon="-4.70802">
        <ele>40</ele>
        <time>2011-11-13T15:58:26Z</time>
      </trkpt>
      <trkpt lat="48.05079" lon="-4.70796">
        <ele>40</ele>
        <time>2011-11-13T15:58:31Z</time>
      </trkpt>
      <trkpt lat="48.05075" lon="-4.70788">
        <ele>42</ele>
        <time>2011-11-13T15:58:37Z</time>
      </trkpt>
      <trkpt lat="48.05071" lon="-4.70781">
        <ele>42</ele>
        <time>2011-11-13T15:58:42Z</time>
      </trkpt>
      <trkpt lat="48.05069" lon="-4.70776">
        <ele>47</ele>
        <time>2011-11-13T15:58:47Z</time>
      </trkpt>
      <trkpt lat="48.05069" lon="-4.70772">
        <ele>45</ele>
        <time>2011-11-13T15:59:45Z</time>
      </trkpt>
      <trkpt lat="48.0507" lon="-4.70769">
        <ele>42</ele>
        <time>2011-11-13T16:00:27Z</time>
      </trkpt>
      <trkpt lat="48.05068" lon="-4.70759">
        <ele>48</ele>
        <time>2011-11-13T16:00:42Z</time>
      </trkpt>
      <trkpt lat="48.05066" lon="-4.70752">
        <ele>43</ele>
        <time>2011-11-13T16:00:47Z</time>
      </trkpt>
      <trkpt lat="48.05065" lon="-4.70744">
        <ele>43</ele>
        <time>2011-11-13T16:00:52Z</time>
      </trkpt>
      <trkpt lat="48.05064" lon="-4.70737">
        <ele>43</ele>
        <time>2011-11-13T16:00:56Z</time>
      </trkpt>
      <trkpt lat="48.0506" lon="-4.70731">
        <ele>42</ele>
        <time>2011-11-13T16:01:01Z</time>
      </trkpt>
      <trkpt lat="48.05058" lon="-4.70726">
        <ele>46</ele>
        <time>2011-11-13T16:01:05Z</time>
      </trkpt>
      <trkpt lat="48.05059" lon="-4.7071">
        <ele>42</ele>
        <time>2011-11-13T16:01:22Z</time>
      </trkpt>
      <trkpt lat="48.05058" lon="-4.70702">
        <ele>45</ele>
        <time>2011-11-13T16:01:28Z</time>
      </trkpt>
      <trkpt lat="48.05052" lon="-4.70692">
        <ele>42</ele>
        <time>2011-11-13T16:01:41Z</time>
      </trkpt>
      <trkpt lat="48.05044" lon="-4.70687">
        <ele>32</ele>
        <time>2011-11-13T16:02:07Z</time>
      </trkpt>
      <trkpt lat="48.05039" lon="-4.70687">
        <ele>30</ele>
        <time>2011-11-13T16:02:16Z</time>
      </trkpt>
      <trkpt lat="48.05037" lon="-4.7069">
        <ele>25</ele>
        <time>2011-11-13T16:02:24Z</time>
      </trkpt>
      <trkpt lat="48.05037" lon="-4.70704">
        <ele>33</ele>
        <time>2011-11-13T16:03:17Z</time>
      </trkpt>
      <trkpt lat="48.05033" lon="-4.70699">
        <ele>32</ele>
        <time>2011-11-13T16:03:29Z</time>
      </trkpt>
      <trkpt lat="48.05031" lon="-4.70692">
        <ele>33</ele>
        <time>2011-11-13T16:03:40Z</time>
      </trkpt>
      <trkpt lat="48.05029" lon="-4.70679">
        <ele>28</ele>
        <time>2011-11-13T16:03:49Z</time>
      </trkpt>
      <trkpt lat="48.05026" lon="-4.70673">
        <ele>29</ele>
        <time>2011-11-13T16:03:54Z</time>
      </trkpt>
      <trkpt lat="48.05023" lon="-4.70668">
        <ele>27</ele>
        <time>2011-11-13T16:03:58Z</time>
      </trkpt>
      <trkpt lat="48.0502" lon="-4.70662">
        <ele>29</ele>
        <time>2011-11-13T16:04:02Z</time>
      </trkpt>
      <trkpt lat="48.05012" lon="-4.70643">
        <ele>22</ele>
        <time>2011-11-13T16:04:16Z</time>
      </trkpt>
      <trkpt lat="48.05008" lon="-4.70628">
        <ele>28</ele>
        <time>2011-11-13T16:04:25Z</time>
      </trkpt>
      <trkpt lat="48.05005" lon="-4.70622">
        <ele>25</ele>
        <time>2011-11-13T16:04:30Z</time>
      </trkpt>
      <trkpt lat="48.05002" lon="-4.70615">
        <ele>28</ele>
        <time>2011-11-13T16:04:35Z</time>
      </trkpt>
      <trkpt lat="48.04999" lon="-4.7061">
        <ele>25</ele>
        <time>2011-11-13T16:04:40Z</time>
      </trkpt>
      <trkpt lat="48.04994" lon="-4.70606">
        <ele>25</ele>
        <time>2011-11-13T16:04:46Z</time>
      </trkpt>
      <trkpt lat="48.04989" lon="-4.70602">
        <ele>20</ele>
        <time>2011-11-13T16:04:49Z</time>
      </trkpt>
      <trkpt lat="48.0498" lon="-4.70594">
        <ele>19</ele>
        <time>2011-11-13T16:04:59Z</time>
      </trkpt>
      <trkpt lat="48.04977" lon="-4.70589">
        <ele>17</ele>
        <time>2011-11-13T16:05:03Z</time>
      </trkpt>
      <trkpt lat="48.04974" lon="-4.70584">
        <ele>17</ele>
        <time>2011-11-13T16:05:07Z</time>
      </trkpt>
      <trkpt lat="48.04972" lon="-4.70577">
        <ele>12</ele>
        <time>2011-11-13T16:05:12Z</time>
      </trkpt>
      <trkpt lat="48.04972" lon="-4.70571">
        <ele>12</ele>
        <time>2011-11-13T16:05:18Z</time>
      </trkpt>
      <trkpt lat="48.04971" lon="-4.70562">
        <ele>14</ele>
        <time>2011-11-13T16:05:22Z</time>
      </trkpt>
      <trkpt lat="48.04971" lon="-4.70555">
        <ele>13</ele>
        <time>2011-11-13T16:05:26Z</time>
      </trkpt>
      <trkpt lat="48.04969" lon="-4.70551">
        <ele>13</ele>
        <time>2011-11-13T16:05:40Z</time>
      </trkpt>
      <trkpt lat="48.04963" lon="-4.70552">
        <ele>11</ele>
        <time>2011-11-13T16:05:48Z</time>
      </trkpt>
      <trkpt lat="48.04962" lon="-4.70546">
        <ele>5</ele>
        <time>2011-11-13T16:05:55Z</time>
      </trkpt>
      <trkpt lat="48.04964" lon="-4.70539">
        <ele>1</ele>
        <time>2011-11-13T16:05:59Z</time>
      </trkpt>
      <trkpt lat="48.04969" lon="-4.70523">
        <ele>5</ele>
        <time>2011-11-13T16:06:11Z</time>
      </trkpt>
      <trkpt lat="48.0497" lon="-4.70516">
        <ele>3</ele>
        <time>2011-11-13T16:06:16Z</time>
      </trkpt>
      <trkpt lat="48.04971" lon="-4.70509">
        <ele>5</ele>
        <time>2011-11-13T16:06:21Z</time>
      </trkpt>
      <trkpt lat="48.04968" lon="-4.705">
        <ele>6</ele>
        <time>2011-11-13T16:06:27Z</time>
      </trkpt>
      <trkpt lat="48.04965" lon="-4.70486">
        <ele>11</ele>
        <time>2011-11-13T16:06:37Z</time>
      </trkpt>
      <trkpt lat="48.04964" lon="-4.7048">
        <ele>7</ele>
        <time>2011-11-13T16:06:47Z</time>
      </trkpt>
      <trkpt lat="48.04954" lon="-4.70483">
        <ele>6</ele>
        <time>2011-11-13T16:07:37Z</time>
      </trkpt>
      <trkpt lat="48.0495" lon="-4.70484">
        <ele>7</ele>
        <time>2011-11-13T16:07:40Z</time>
      </trkpt>
      <trkpt lat="48.04944" lon="-4.70485">
        <ele>7</ele>
        <time>2011-11-13T16:07:44Z</time>
      </trkpt>
      <trkpt lat="48.04932" lon="-4.70489">
        <ele>7</ele>
        <time>2011-11-13T16:07:54Z</time>
      </trkpt>
      <trkpt lat="48.04927" lon="-4.7049">
        <ele>8</ele>
        <time>2011-11-13T16:07:57Z</time>
      </trkpt>
      <trkpt lat="48.04922" lon="-4.7049">
        <ele>8</ele>
        <time>2011-11-13T16:08:00Z</time>
      </trkpt>
      <trkpt lat="48.04918" lon="-4.70491">
        <ele>7</ele>
        <time>2011-11-13T16:08:05Z</time>
      </trkpt>
      <trkpt lat="48.04913" lon="-4.70492">
        <ele>7</ele>
        <time>2011-11-13T16:08:10Z</time>
      </trkpt>
      <trkpt lat="48.04909" lon="-4.70494">
        <ele>7</ele>
        <time>2011-11-13T16:08:17Z</time>
      </trkpt>
      <trkpt lat="48.04899" lon="-4.70498">
        <ele>3</ele>
        <time>2011-11-13T16:08:38Z</time>
      </trkpt>
      <trkpt lat="48.04895" lon="-4.705">
        <ele>3</ele>
        <time>2011-11-13T16:08:42Z</time>
      </trkpt>
      <trkpt lat="48.0489" lon="-4.70503">
        <ele>3</ele>
        <time>2011-11-13T16:08:47Z</time>
      </trkpt>
      <trkpt lat="48.04886" lon="-4.70504">
        <ele>1</ele>
        <time>2011-11-13T16:08:52Z</time>
      </trkpt>
      <trkpt lat="48.04873" lon="-4.70505">
        <ele>4</ele>
        <time>2011-11-13T16:09:05Z</time>
      </trkpt>
      <trkpt lat="48.04868" lon="-4.70506">
        <ele>1</ele>
        <time>2011-11-13T16:09:11Z</time>
      </trkpt>
      <trkpt lat="48.04854" lon="-4.70511">
        <ele>4</ele>
        <time>2011-11-13T16:09:22Z</time>
      </trkpt>
      <trkpt lat="48.04844" lon="-4.70514">
        <ele>9</ele>
        <time>2011-11-13T16:09:31Z</time>
      </trkpt>
      <trkpt lat="48.04839" lon="-4.70515">
        <ele>1</ele>
        <time>2011-11-13T16:09:36Z</time>
      </trkpt>
      <trkpt lat="48.0483" lon="-4.70516">
        <ele>8.8</ele>
        <time>2011-11-13T16:09:46Z</time>
      </trkpt>
      <trkpt lat="48.04824" lon="-4.70515">
        <ele>9</ele>
        <time>2011-11-13T16:09:50Z</time>
      </trkpt>
      <trkpt lat="48.04819" lon="-4.70516">
        <ele>1</ele>
        <time>2011-11-13T16:09:54Z</time>
      </trkpt>
      <trkpt lat="48.04814" lon="-4.70515">
        <ele>9.2</ele>
        <time>2011-11-13T16:09:59Z</time>
      </trkpt>
      <trkpt lat="48.0478" lon="-4.7051">
        <ele>7.5</ele>
        <time>2011-11-13T16:10:29Z</time>
      </trkpt>
      <trkpt lat="48.04747" lon="-4.70492">
        <ele>6.3</ele>
        <time>2011-11-13T16:11:00Z</time>
      </trkpt>
      <trkpt lat="48.04712" lon="-4.70462">
        <ele>6</ele>
        <time>2011-11-13T16:11:34Z</time>
      </trkpt>
      <trkpt lat="48.04681" lon="-4.70469">
        <ele>5.9</ele>
        <time>2011-11-13T16:12:08Z</time>
      </trkpt>
      <trkpt lat="48.04648" lon="-4.7048">
        <ele>5.2</ele>
        <time>2011-11-13T16:12:43Z</time>
      </trkpt>
      <trkpt lat="48.04619" lon="-4.70484">
        <ele>5.7</ele>
        <time>2011-11-13T16:13:11Z</time>
      </trkpt>
      <trkpt lat="48.04619" lon="-4.70493">
        <ele>5.7</ele>
        <time>2011-11-13T16:13:29Z</time>
      </trkpt>
      <trkpt lat="48.04617" lon="-4.70522">
        <ele>5.8</ele>
        <time>2011-11-13T16:13:46Z</time>
      </trkpt>
      <trkpt lat="48.04591" lon="-4.70553">
        <ele>5.8</ele>
        <time>2011-11-13T16:14:17Z</time>
      </trkpt>
      <trkpt lat="48.04586" lon="-4.70557">
        <ele>5.9</ele>
        <time>2011-11-13T16:14:22Z</time>
      </trkpt>
      <trkpt lat="48.04581" lon="-4.70552">
        <ele>6.1</ele>
        <time>2011-11-13T16:14:28Z</time>
      </trkpt>
      <trkpt lat="48.04577" lon="-4.70548">
        <ele>6.2</ele>
        <time>2011-11-13T16:14:33Z</time>
      </trkpt>
      <trkpt lat="48.04571" lon="-4.70537">
        <ele>6.1</ele>
        <time>2011-11-13T16:14:43Z</time>
      </trkpt>
    </trkseg>
  </trk>
</gpx>